M I D A S
Marine Information and Data Acquisition System
Tripno 1180 of the Zeeleeuw from 2006-12-19 07:30:20 to 2006-12-19 15:50:48
Back to CruiseResearch ActivitiesStationsMapUnderway DataData graphs

EquipmentUnitsComment
TimeDGPSUTC
LatitudeDGPSDM.mWGS84
LongitudeDGPSDM.mWGS84
TemperatureSBE03/SBE38deg celciusITS90
ConductivitySBE21S/mITS90
SalinitySBE21 Practical Salinity Units
ChlorophylAChelsea fluorimeterg/lCalibrated in Aceton
Missing or incorrect values are displayed as -999
Sea surface data collected by the RV Zeeleeuw from 2006-12-19 07:30:50 to 2006-12-19 16:02:29
                                                                                    Next 1000 lines
Time Latitude Longitude Temperature Conductivity Salinity ChlorophylA
2006-12-19 07:31:00 51°13.601 2°56.095 10.6909 2.70904 22.116063 -2.871232
2006-12-19 07:31:04 51°13.602 2°56.093 10.6823 2.678442 21.937877 -2.871232
2006-12-19 07:31:10 51°13.602 2°56.09 10.661 2.674928 21.985169 -2.871232
2006-12-19 07:31:15 51°13.603 2°56.086 10.6361 2.671001 21.991777 -2.871232
2006-12-19 07:31:20 51°13.604 2°56.082 10.4007 2.668934 22.0076 -2.871232
2006-12-19 07:31:26 51°13.605 2°56.076 10.3325 2.668934 22.0076 -2.871232
2006-12-19 07:31:32 51°13.606 2°56.07 10.1934 2.667487 22.023604 -2.871232
2006-12-19 07:31:36 51°13.606 2°56.065 10.0582 2.667591 22.044366 -2.871232
2006-12-19 07:31:43 51°13.607 2°56.058 9.9222 2.666764 22.056159 -2.871232
2006-12-19 07:31:48 51°13.608 2°56.053 9.8623 2.678446 22.20125 -2.871232
2006-12-19 07:31:52 51°13.609 2°56.048 9.7271 2.717627 22.627741 -2.871232
2006-12-19 07:31:58 51°13.61 2°56.041 9.6599 2.717627 22.627741 -2.871232
2006-12-19 07:32:03 51°13.612 2°56.035 9.6093 2.775734 23.251122 -2.871232
2006-12-19 07:32:08 51°13.613 2°56.029 9.5393 2.828987 23.825634 -2.871232
2006-12-19 07:32:12 51°13.614 2°56.024 9.4619 2.867355 24.281491 -2.871232
2006-12-19 07:32:18 51°13.616 2°56.015 9.4029 2.89166 24.601099 -2.871232
2006-12-19 07:32:23 51°13.618 2°56.008 9.4082 2.91369 24.897532 -2.871232
2006-12-19 07:32:28 51°13.619 2°56.001 9.3759 2.91369 24.897532 -2.871232
2006-12-19 07:32:32 51°13.62 2°55.996 9.3187 2.927965 25.10034 -2.871232
2006-12-19 07:32:38 51°13.622 2°55.988 9.2938 2.940481 25.290311 -2.871232
2006-12-19 07:32:42 51°13.623 2°55.982 9.2591 2.948757 25.431879 -2.871232
2006-12-19 07:32:48 51°13.625 2°55.975 9.2187 2.952067 25.524863 -2.871232
2006-12-19 07:32:52 51°13.626 2°55.97 9.2265 2.95455 25.586417 -2.871232
2006-12-19 07:32:58 51°13.628 2°55.964 9.2135 2.95455 25.586417 -2.871232
2006-12-19 07:33:02 51°13.628 2°55.961 9.1702 2.960964 25.683082 -2.871232
2006-12-19 07:33:08 51°13.629 2°55.956 9.1375 2.971309 25.823096 -2.871232
2006-12-19 07:33:12 51°13.629 2°55.953 9.0914 2.978136 25.924409 -2.871232
2006-12-19 07:33:18 51°13.63 2°55.95 9.0866 2.982585 25.999064 -2.871232
2006-12-19 07:33:22 51°13.63 2°55.949 9.0479 2.982585 26.019494 -2.871232
2006-12-19 07:33:26 51°13.63 2°55.948 9.0565 2.982585 26.019494 -2.871232
2006-12-19 07:33:32 51°13.63 2°55.946 9.042 2.976896 25.982445 -2.871232
2006-12-19 07:33:36 51°13.631 2°55.945 9.0482 2.971207 25.956935 -2.871232
2006-12-19 07:33:42 51°13.632 2°55.941 9.0422 2.966449 25.938318 -2.871232
2006-12-19 07:33:46 51°13.633 2°55.938 9.0218 2.959829 25.904429 -2.871232
2006-12-19 07:33:52 51°13.634 2°55.934 9.0334 2.959623 25.924253 -2.871232
2006-12-19 07:33:56 51°13.636 2°55.93 9.0335 2.959623 25.924253 -2.871232
2006-12-19 07:34:02 51°13.638 2°55.924 9.0221 2.963761 25.982697 -2.871232
2006-12-19 07:34:08 51°13.64 2°55.918 9.0169 2.966036 26.01224 -2.871232
2006-12-19 07:34:12 51°13.642 2°55.913 9.0052 2.967381 26.028678 -2.871232
2006-12-19 07:34:18 51°13.645 2°55.906 8.991 2.967071 26.034597 -2.871232
2006-12-19 07:34:22 51°13.647 2°55.901 8.9704 2.96614 26.034512 -2.871232
2006-12-19 07:34:28 51°13.65 2°55.893 8.9602 2.96614 26.034512 -2.871232
2006-12-19 07:34:32 51°13.653 2°55.887 8.9669 2.974002 26.114077 -2.871232
2006-12-19 07:34:38 51°13.656 2°55.879 8.9567 2.99738 26.344809 -2.871232
2006-12-19 07:34:42 51°13.659 2°55.874 8.9301 3.013622 26.507972 -2.871232
2006-12-19 07:34:48 51°13.663 2°55.865 8.9205 3.021484 26.59554 -2.871232
2006-12-19 07:34:52 51°13.666 2°55.859 8.9106 3.02045 26.599539 -2.871232
2006-12-19 07:34:58 51°13.67 2°55.85 8.9084 3.02045 26.599539 -2.871232
2006-12-19 07:35:02 51°13.673 2°55.844 8.9215 3.02345 26.639963 -2.871232
2006-12-19 07:35:08 51°13.678 2°55.835 8.9189 3.028312 26.694312 -2.871232
2006-12-19 07:35:12 51°13.681 2°55.828 8.9096 3.02883 26.709939 -2.871232
2006-12-19 07:35:18 51°13.686 2°55.819 8.909 3.027485 26.711687 -2.871232
2006-12-19 07:35:22 51°13.689 2°55.812 8.9184 3.026451 26.712925 -2.871232
2006-12-19 07:35:28 51°13.694 2°55.803 8.9232 3.026451 26.712925 -2.871232
2006-12-19 07:35:32 51°13.697 2°55.796 8.9294 3.029348 26.745397 -2.871232
2006-12-19 07:35:38 51°13.702 2°55.787 8.9321 3.039693 26.848376 -2.871232
2006-12-19 07:35:42 51°13.705 2°55.78 8.9286 3.054074 26.991506 -2.871232
2006-12-19 07:35:48 51°13.71 2°55.77 8.9236 3.067627 27.128119 -2.871232
2006-12-19 07:35:54 51°13.715 2°55.76 8.9251 3.079008 27.237851 -2.871232
2006-12-19 07:35:58 51°13.718 2°55.754 8.9239 3.079008 27.237851 -2.871232
2006-12-19 07:36:02 51°13.721 2°55.748 8.9176 3.089769 27.338667 -2.871232
2006-12-19 07:36:08 51°13.724 2°55.741 8.913 3.097426 27.412789 -2.871232
2006-12-19 07:36:12 51°13.726 2°55.736 8.9076 3.101564 27.451803 -2.871232
2006-12-19 07:36:18 51°13.729 2°55.731 8.9099 3.103634 27.474951 -2.871232
2006-12-19 07:36:22 51°13.73 2°55.728 8.8987 3.103323 27.471915 -2.871232
2006-12-19 07:36:28 51°13.732 2°55.725 8.8891 3.103323 27.471915 -2.871232
2006-12-19 07:36:32 51°13.732 2°55.723 8.8911 3.105083 27.491305 -2.871232
2006-12-19 07:36:38 51°13.733 2°55.723 8.8946 3.106117 27.506528 -2.871232
2006-12-19 07:36:43 51°13.734 2°55.723 8.885 3.103324 27.48211 -2.871232
2006-12-19 07:36:48 51°13.734 2°55.724 8.8814 3.096391 27.417928 -2.871232
2006-12-19 07:36:52 51°13.735 2°55.725 8.8743 3.089459 27.354476 -2.871232
2006-12-19 07:36:56 51°13.735 2°55.727 8.865 3.089459 27.354476 -2.871232
2006-12-19 07:37:03 51°13.736 2°55.73 8.8612 3.081492 27.281633 -2.871232
2006-12-19 07:37:07 51°13.736 2°55.731 8.8398 3.073215 27.203593 -2.871232
2006-12-19 07:37:12 51°13.736 2°55.731 8.8267 3.065662 27.134087 -2.871232
2006-12-19 07:37:16 51°13.736 2°55.731 8.8174 3.059144 27.074696 -2.871232
2006-12-19 07:37:22 51°13.736 2°55.729 8.8272 3.05573 27.047072 -2.871232
2006-12-19 07:37:26 51°13.736 2°55.728 8.8218 3.05573 27.047072 -2.871232
2006-12-19 07:37:32 51°13.736 2°55.725 8.8073 3.050867 27.005285 -2.871232
2006-12-19 07:37:36 51°13.735 2°55.722 8.8117 3.037004 26.87697 -2.871232
2006-12-19 07:37:42 51°13.734 2°55.717 8.8331 3.017141 26.694339 -2.871232
2006-12-19 07:37:46 51°13.733 2°55.714 8.8399 2.999451 26.530828 -2.871232
2006-12-19 07:37:52 51°13.732 2°55.709 8.8327 2.989624 26.439145 -2.871232
2006-12-19 07:37:58 51°13.731 2°55.705 8.8467 2.989624 26.439145 -2.871232
2006-12-19 07:38:02 51°13.731 2°55.703 8.8614 2.983831 26.388938 -2.871232
2006-12-19 07:38:08 51°13.73 2°55.701 8.8582 2.980418 26.361938 -2.871232
2006-12-19 07:38:12 51°13.73 2°55.7 8.868 2.986624 26.418298 -2.871232
2006-12-19 07:38:18 51°13.731 2°55.7 8.8678 3.00121 26.555048 -2.871232
2006-12-19 07:38:22 51°13.731 2°55.7 8.8739 3.019624 26.732784 -2.871232
2006-12-19 07:38:28 51°13.732 2°55.701 8.876 3.019624 26.732784 -2.871232
2006-12-19 07:38:32 51°13.733 2°55.702 8.8689 3.039591 26.922966 -2.871232
2006-12-19 07:38:38 51°13.734 2°55.703 8.8693 3.058937 27.105751 -2.871232
2006-12-19 07:38:42 51°13.735 2°55.703 8.8637 3.071353 27.222207 -2.871232
2006-12-19 07:38:48 51°13.735 2°55.703 8.8586 3.081492 27.317854 -2.871232
2006-12-19 07:38:52 51°13.734 2°55.702 8.8591 3.086252 27.361557 -2.871232
2006-12-19 07:38:58 51°13.732 2°55.701 8.8413 3.086252 27.361557 -2.871232
2006-12-19 07:39:03 51°13.731 2°55.7 8.8372 3.086666 27.364157 -2.871232
2006-12-19 07:39:07 51°13.73 2°55.699 8.8383 3.087183 27.36995 -2.871232
2006-12-19 07:39:12 51°13.729 2°55.698 8.8484 3.083562 27.33594 -2.871232
2006-12-19 07:39:16 51°13.728 2°55.698 8.855 3.078285 27.287899 -2.871232
2006-12-19 07:39:23 51°13.729 2°55.698 8.8555 3.068559 27.195587 -2.871232
2006-12-19 07:39:28 51°13.73 2°55.698 8.8595 3.068559 27.195587 -2.871232
2006-12-19 07:39:32 51°13.731 2°55.698 8.8683 3.05811 27.101251 -2.871232
2006-12-19 07:39:38 51°13.733 2°55.698 8.8754 3.052006 27.046555 -2.871232
2006-12-19 07:39:43 51°13.735 2°55.698 8.8695 3.05242 27.049886 -2.871232
2006-12-19 07:39:48 51°13.738 2°55.697 8.8683 3.061421 27.135094 -2.871232
2006-12-19 07:39:52 51°13.74 2°55.695 8.8678 3.070836 27.225097 -2.871232
2006-12-19 07:39:58 51°13.743 2°55.693 8.8634 3.070836 27.225097 -2.871232
2006-12-19 07:40:03 51°13.746 2°55.691 8.8651 3.077561 27.28733 -2.871232
2006-12-19 07:40:08 51°13.749 2°55.689 8.8532 3.083251 27.338708 -2.871232
2006-12-19 07:40:12 51°13.752 2°55.686 8.841 3.089666 27.40009 -2.871232
2006-12-19 07:40:17 51°13.755 2°55.683 8.8289 3.095047 27.452075 -2.871232
2006-12-19 07:40:22 51°13.758 2°55.68 8.8381 3.096081 27.462943 -2.871232
2006-12-19 07:40:27 51°13.762 2°55.677 8.8361 3.096081 27.462943 -2.871232
2006-12-19 07:40:32 51°13.767 2°55.674 8.8343 3.095047 27.454262 -2.871232
2006-12-19 07:40:36 51°13.771 2°55.671 8.8359 3.08977 27.404742 -2.871232
2006-12-19 07:40:42 51°13.777 2°55.668 8.8316 3.075285 27.269386 -2.871232
2006-12-19 07:40:47 51°13.782 2°55.665 8.8294 3.065973 27.186879 -2.871232
2006-12-19 07:40:52 51°13.788 2°55.662 8.8359 3.066387 27.193822 -2.871232
2006-12-19 07:40:56 51°13.792 2°55.659 8.8304 3.066387 27.193822 -2.871232
2006-12-19 07:41:02 51°13.799 2°55.654 8.8132 3.066697 27.197585 -2.871232
2006-12-19 07:41:06 51°13.804 2°55.651 8.8021 3.064525 27.177751 -2.871232
2006-12-19 07:41:11 51°13.81 2°55.647 8.7951 3.06049 27.13968 -2.871232
2006-12-19 07:41:16 51°13.817 2°55.644 8.79 3.055006 27.088871 -2.871232
2006-12-19 07:41:20 51°13.822 2°55.641 8.7784 3.052316 27.063255 -2.871232
2006-12-19 07:41:26 51°13.83 2°55.636 8.7727 3.052316 27.063255 -2.871232
2006-12-19 07:41:30 51°13.836 2°55.632 8.7719 3.047454 27.019966 -2.871232
2006-12-19 07:41:36 51°13.844 2°55.627 8.7709 3.034418 26.899546 -2.871232
2006-12-19 07:41:40 51°13.849 2°55.623 8.7629 3.01559 26.723186 -2.871232
2006-12-19 07:41:46 51°13.857 2°55.617 8.7563 3.001417 26.592398 -2.871232
2006-12-19 07:41:51 51°13.864 2°55.611 8.7567 2.990452 26.490857 -2.871232
2006-12-19 07:41:55 51°13.869 2°55.607 8.7346 2.990452 26.490857 -2.871232
2006-12-19 07:42:00 51°13.876 2°55.602 8.7281 2.981142 26.406205 -2.871232
2006-12-19 07:42:04 51°13.882 2°55.598 8.7286 2.976384 26.363219 -2.871232
2006-12-19 07:42:10 51°13.89 2°55.592 8.738 2.970074 26.306474 -2.871232
2006-12-19 07:42:15 51°13.896 2°55.587 8.7491 2.961282 26.226174 -2.871232
2006-12-19 07:42:20 51°13.903 2°55.581 8.7548 2.949697 26.117907 -2.871232
2006-12-19 07:42:25 51°13.911 2°55.577 8.7688 2.949697 26.117907 -2.871232
2006-12-19 07:42:30 51°13.918 2°55.571 8.7872 2.934182 25.976144 -2.871232
2006-12-19 07:42:35 51°13.925 2°55.566 8.8009 2.924563 25.888476 -2.871232
2006-12-19 07:42:40 51°13.932 2°55.561 8.8021 2.922494 25.870357 -2.871232
2006-12-19 07:42:44 51°13.937 2°55.557 8.8135 2.932217 25.961112 -2.871232
2006-12-19 07:42:48 51°13.943 2°55.553 8.8218 2.951559 26.143749 -2.871232
2006-12-19 07:42:55 51°13.953 2°55.545 8.8275 2.951559 26.143749 -2.871232
2006-12-19 07:43:00 51°13.96 2°55.54 8.8347 2.976281 26.376956 -2.871232
2006-12-19 07:43:05 51°13.966 2°55.535 8.8365 2.996866 26.566988 -2.871232
2006-12-19 07:43:08 51°13.97 2°55.532 8.837 3.018487 26.769322 -2.871232
2006-12-19 07:43:15 51°13.979 2°55.525 8.839 3.037419 26.946825 -2.871232
2006-12-19 07:43:20 51°13.986 2°55.519 8.8396 3.050454 27.067331 -2.871232
2006-12-19 07:43:25 51°13.995 2°55.515 8.8455 3.050454 27.067331 -2.871232
2006-12-19 07:43:30 51°14.003 2°55.511 8.845 3.063594 27.18959 -2.871232
2006-12-19 07:43:35 51°14.009 2°55.506 8.8443 3.071974 27.265939 -2.871232
2006-12-19 07:43:40 51°14.016 2°55.502 8.8441 3.079941 27.339685 -2.871232
2006-12-19 07:43:44 51°14.021 2°55.497 8.8437 3.087184 27.408521 -2.871232
2006-12-19 07:43:50 51°14.03 2°55.491 8.841 3.092357 27.457802 -2.871232
2006-12-19 07:43:54 51°14.035 2°55.487 8.8339 3.092357 27.457802 -2.871232
2006-12-19 07:44:00 51°14.044 2°55.481 8.8212 3.095875 27.490119 -2.871232
2006-12-19 07:44:05 51°14.051 2°55.476 8.8192 3.098875 27.518092 -2.871232
2006-12-19 07:44:10 51°14.058 2°55.471 8.812 3.098772 27.516346 -2.871232
2006-12-19 07:44:14 51°14.063 2°55.467 8.8107 3.095668 27.485897 -2.871232
2006-12-19 07:44:20 51°14.072 2°55.461 8.8077 3.088218 27.414294 -2.871232
2006-12-19 07:44:24 51°14.077 2°55.457 8.8056 3.088218 27.414294 -2.871232
2006-12-19 07:44:31 51°14.087 2°55.449 8.8024 3.078492 27.322577 -2.871232
2006-12-19 07:44:36 51°14.094 2°55.444 8.8028 3.067732 27.223637 -2.871232
2006-12-19 07:44:40 51°14.099 2°55.44 8.7894 3.057076 27.124996 -2.871232
2006-12-19 07:44:46 51°14.107 2°55.433 8.7805 3.049834 27.05837 -2.871232
2006-12-19 07:44:52 51°14.115 2°55.426 8.7776 3.045592 27.020416 -2.871232
2006-12-19 07:44:56 51°14.121 2°55.422 8.7665 3.045592 27.020416 -2.871232
2006-12-19 07:45:03 51°14.13 2°55.415 8.7641 3.042074 26.988117 -2.871232
2006-12-19 07:45:08 51°14.137 2°55.409 8.7667 3.038971 26.959154 -2.871232
2006-12-19 07:45:12 51°14.143 2°55.405 8.7644 3.034936 26.924658 -2.871232
2006-12-19 07:45:18 51°14.151 2°55.398 8.7539 3.028522 26.869 -2.871232
2006-12-19 07:45:23 51°14.158 2°55.392 8.7489 3.021797 26.808151 -2.871232
2006-12-19 07:45:28 51°14.164 2°55.386 8.7415 3.021797 26.808151 -2.871232
2006-12-19 07:45:32 51°14.169 2°55.381 8.7267 3.016004 26.757842 -2.871232
2006-12-19 07:45:38 51°14.177 2°55.374 8.7193 3.011866 26.722308 -2.871232
2006-12-19 07:45:42 51°14.182 2°55.368 8.7189 3.011245 26.719077 -2.871232
2006-12-19 07:45:48 51°14.19 2°55.36 8.7212 3.013108 26.741588 -2.871232
2006-12-19 07:45:52 51°14.195 2°55.355 8.7104 3.014039 26.755698 -2.871232
2006-12-19 07:45:58 51°14.202 2°55.345 8.713 3.014039 26.755698 -2.871232
2006-12-19 07:46:03 51°14.208 2°55.338 8.6996 3.012073 26.743569 -2.871232
2006-12-19 07:46:08 51°14.214 2°55.33 8.6929 3.008763 26.720393 -2.871232
2006-12-19 07:46:12 51°14.219 2°55.324 8.6926 3.004729 26.685836 -2.871232
2006-12-19 07:46:18 51°14.225 2°55.314 8.6852 3.001211 26.654921 -2.871232
2006-12-19 07:46:23 51°14.231 2°55.305 8.6873 2.992729 26.575345 -2.871232
2006-12-19 07:46:28 51°14.236 2°55.297 8.6823 2.992729 26.575345 -2.871232
2006-12-19 07:46:32 51°14.24 2°55.289 8.6739 2.986626 26.519798 -2.871232
2006-12-19 07:46:37 51°14.246 2°55.28 8.6797 2.981867 26.478837 -2.871232
2006-12-19 07:46:42 51°14.251 2°55.271 8.6618 2.973178 26.398659 -2.871232
2006-12-19 07:46:47 51°14.256 2°55.261 8.6697 2.964696 26.319809 -2.871232
2006-12-19 07:46:52 51°14.261 2°55.251 8.6663 2.959421 26.27026 -2.871232
2006-12-19 07:46:56 51°14.265 2°55.243 8.6565 2.959421 26.27026 -2.871232
2006-12-19 07:47:02 51°14.271 2°55.232 8.662 2.953525 26.215341 -2.871232
2006-12-19 07:47:07 51°14.277 2°55.222 8.6527 2.946077 26.147336 -2.871232
2006-12-19 07:47:12 51°14.282 2°55.212 8.6515 2.93894 26.081672 -2.871232
2006-12-19 07:47:16 51°14.286 2°55.203 8.6448 2.933872 26.036948 -2.871232
2006-12-19 07:47:22 51°14.293 2°55.191 8.646 2.931804 26.018792 -2.871232
2006-12-19 07:47:26 51°14.298 2°55.182 8.6472 2.931804 26.018792 -2.871232
2006-12-19 07:47:31 51°14.304 2°55.171 8.6565 2.929839 26.003036 -2.871232
2006-12-19 07:47:36 51°14.31 2°55.16 8.6482 2.929425 26.001766 -2.871232
2006-12-19 07:47:40 51°14.315 2°55.151 8.6519 2.929942 26.009608 -2.871232
2006-12-19 07:47:46 51°14.322 2°55.137 8.65 2.932218 26.035361 -2.871232
2006-12-19 07:47:50 51°14.327 2°55.127 8.6425 2.938424 26.097524 -2.871232
2006-12-19 07:47:56 51°14.334 2°55.113 8.64 2.938424 26.097524 -2.871232
2006-12-19 07:48:00 51°14.339 2°55.103 8.6387 2.948146 26.192769 -2.871232
2006-12-19 07:48:06 51°14.347 2°55.088 8.6349 2.96511 26.359049 -2.871232
2006-12-19 07:48:10 51°14.352 2°55.078 8.6262 2.977937 26.485572 -2.871232
2006-12-19 07:48:14 51°14.357 2°55.068 8.6182 2.993454 26.638589 -2.871232
2006-12-19 07:48:21 51°14.366 2°55.049 8.6123 3.011557 26.81858 -2.871232
2006-12-19 07:48:25 51°14.372 2°55.038 8.5945 3.011557 26.81858 -2.871232
2006-12-19 07:48:30 51°14.378 2°55.024 8.5869 3.025627 26.95979 -2.871232
2006-12-19 07:48:34 51°14.383 2°55.011 8.5803 3.034834 27.053268 -2.871232
2006-12-19 07:48:40 51°14.39 2°54.992 8.5778 3.041248 27.120029 -2.871232
2006-12-19 07:48:44 51°14.394 2°54.978 8.5789 3.043214 27.145919 -2.871232
2006-12-19 07:48:50 51°14.4 2°54.957 8.5782 3.042387 27.144306 -2.871232
2006-12-19 07:48:55 51°14.405 2°54.939 8.5862 3.042387 27.144306 -2.871232
2006-12-19 07:48:59 51°14.409 2°54.924 8.5905 3.046629 27.195558 -2.871232
2006-12-19 07:49:04 51°14.414 2°54.905 8.6021 3.057078 27.30808 -2.871232
2006-12-19 07:49:10 51°14.42 2°54.882 8.612 3.073322 27.474997 -2.871232
2006-12-19 07:49:14 51°14.424 2°54.867 8.6171 3.091946 27.663419 -2.871232
2006-12-19 07:49:19 51°14.429 2°54.847 8.6263 3.111502 27.857547 -2.871232
2006-12-19 07:49:24 51°14.434 2°54.828 8.6421 3.111502 27.857547 -2.871232
2006-12-19 07:49:30 51°14.441 2°54.804 8.6573 3.131059 28.04886 -2.871232
2006-12-19 07:49:34 51°14.445 2°54.789 8.6758 3.148547 28.217546 -2.871232
2006-12-19 07:49:40 51°14.452 2°54.766 8.7002 3.168829 28.41098 -2.871232
2006-12-19 07:49:44 51°14.457 2°54.751 8.7215 3.190252 28.615798 -2.871232
2006-12-19 07:49:48 51°14.462 2°54.735 8.7446 3.211882 28.821234 -2.871232
2006-12-19 07:49:54 51°14.469 2°54.712 8.7713 3.211882 28.821234 -2.871232
2006-12-19 07:49:59 51°14.474 2°54.692 8.7912 3.230408 28.99436 -2.871232
2006-12-19 07:50:04 51°14.479 2°54.671 8.8062 3.251626 29.191917 -2.871232
2006-12-19 07:50:08 51°14.482 2°54.653 8.8154 3.274811 29.405125 -2.871232
2006-12-19 07:50:14 51°14.486 2°54.626 8.8301 3.285473 29.490635 -2.871232
2006-12-19 07:50:20 51°14.488 2°54.598 8.8343 3.325327 29.865564 -2.871232
2006-12-19 07:50:24 51°14.489 2°54.58 8.8412 3.325327 29.865564 -2.871232
2006-12-19 07:50:29 51°14.491 2°54.556 8.8526 3.347998 30.068772 -2.871232
2006-12-19 07:50:34 51°14.492 2°54.532 8.8628 3.363838 30.206316 -2.871232
2006-12-19 07:50:40 51°14.494 2°54.503 8.873 3.372121 30.272614 -2.871232
2006-12-19 07:50:44 51°14.494 2°54.483 8.8923 3.376676 30.302599 -2.871232
2006-12-19 07:50:49 51°14.495 2°54.458 8.9033 3.377815 30.304237 -2.871232
2006-12-19 07:50:54 51°14.496 2°54.433 8.9253 3.377815 30.304237 -2.871232
2006-12-19 07:50:59 51°14.497 2°54.408 8.9383 3.37916 30.307934 -2.871232
2006-12-19 07:51:04 51°14.497 2°54.383 8.9533 3.381231 30.318027 -2.871232
2006-12-19 07:51:09 51°14.496 2°54.358 8.9636 3.383198 30.326278 -2.871232
2006-12-19 07:51:14 51°14.493 2°54.334 8.9684 3.386408 30.344446 -2.871232
2006-12-19 07:51:19 51°14.489 2°54.31 8.9662 3.396036 30.423128 -2.871232
2006-12-19 07:51:24 51°14.484 2°54.286 8.9626 3.396036 30.423128 -2.871232
2006-12-19 07:51:29 51°14.478 2°54.263 8.9598 3.40815 30.528068 -2.871232
2006-12-19 07:51:34 51°14.471 2°54.24 8.9548 3.419747 30.629453 -2.871232
2006-12-19 07:51:39 51°14.464 2°54.218 8.9515 3.429998 30.717436 -2.871232
2006-12-19 07:51:43 51°14.458 2°54.2 8.9491 3.437246 30.779644 -2.871232
2006-12-19 07:51:49 51°14.449 2°54.174 8.9484 3.441284 30.814856 -2.871232
2006-12-19 07:51:54 51°14.44 2°54.153 8.9539 3.441284 30.814856 -2.871232
2006-12-19 07:51:59 51°14.431 2°54.131 8.959 3.440663 30.807867 -2.871232
2006-12-19 07:52:03 51°14.424 2°54.114 8.9654 3.437557 30.777828 -2.871232
2006-12-19 07:52:09 51°14.413 2°54.088 8.9736 3.434036 30.745311 -2.871232
2006-12-19 07:52:14 51°14.403 2°54.067 8.9786 3.431654 30.724105 -2.871232
2006-12-19 07:52:20 51°14.391 2°54.04 8.9854 3.432069 30.729034 -2.871232
2006-12-19 07:52:24 51°14.383 2°54.023 8.992 3.432069 30.729034 -2.871232
2006-12-19 07:52:29 51°14.374 2°54 8.9987 3.434864 30.754354 -2.871232
2006-12-19 07:52:33 51°14.367 2°53.981 9.0066 3.440042 30.801695 -2.871232
2006-12-19 07:52:39 51°14.356 2°53.954 9.0117 3.448326 30.87744 -2.871232
2006-12-19 07:52:44 51°14.347 2°53.931 9.0184 3.455056 30.938572 -2.871232
2006-12-19 07:52:48 51°14.34 2°53.912 9.0238 3.462202 31.002996 -2.871232
2006-12-19 07:52:54 51°14.328 2°53.884 9.0291 3.462202 31.002996 -2.871232
2006-12-19 07:52:59 51°14.318 2°53.861 9.0356 3.46624 31.035721 -2.871232
2006-12-19 07:53:04 51°14.308 2°53.838 9.0387 3.471936 31.085725 -2.871232
2006-12-19 07:53:09 51°14.298 2°53.815 9.0396 3.478874 31.146421 -2.871232
2006-12-19 07:53:13 51°14.29 2°53.797 9.0421 3.48312 31.182003 -2.871232
2006-12-19 07:53:19 51°14.278 2°53.768 9.0454 3.485812 31.202144 -2.871232
2006-12-19 07:53:24 51°14.268 2°53.745 9.0489 3.485812 31.202144 -2.871232
2006-12-19 07:53:29 51°14.258 2°53.721 9.0518 3.48778 31.215905 -2.871232
2006-12-19 07:53:34 51°14.248 2°53.698 9.0555 3.489229 31.225347 -2.871232
2006-12-19 07:53:39 51°14.238 2°53.675 9.0569 3.490783 31.236642 -2.871232
2006-12-19 07:53:44 51°14.229 2°53.651 9.0594 3.492129 31.246705 -2.871232
2006-12-19 07:53:49 51°14.219 2°53.628 9.0619 3.492957 31.251624 -2.871232
2006-12-19 07:53:54 51°14.208 2°53.604 9.066 3.492957 31.251624 -2.871232
2006-12-19 07:53:59 51°14.199 2°53.581 9.0659 3.494407 31.261886 -2.871232
2006-12-19 07:54:03 51°14.19 2°53.562 9.0689 3.495857 31.272973 -2.871232
2006-12-19 07:54:09 51°14.178 2°53.534 9.0714 3.497307 31.284888 -2.871232
2006-12-19 07:54:14 51°14.168 2°53.511 9.0739 3.498239 31.291659 -2.871232
2006-12-19 07:54:19 51°14.159 2°53.487 9.0798 3.49855 31.29226 -2.871232
2006-12-19 07:54:24 51°14.148 2°53.464 9.0843 3.49855 31.29226 -2.871232
2006-12-19 07:54:28 51°14.141 2°53.445 9.0903 3.499171 31.295945 -2.871232
2006-12-19 07:54:34 51°14.129 2°53.416 9.0972 3.499999 31.301686 -2.871232
2006-12-19 07:54:40 51°14.117 2°53.388 9.1051 3.500724 31.306399 -2.871232
2006-12-19 07:54:44 51°14.109 2°53.369 9.1112 3.50176 31.313367 -2.871232
2006-12-19 07:54:49 51°14.098 2°53.345 9.1186 3.502381 31.316222 -2.871232
2006-12-19 07:54:54 51°14.089 2°53.321 9.1219 3.502381 31.316222 -2.871232
2006-12-19 07:54:59 51°14.079 2°53.298 9.1263 3.503417 31.321532 -2.871232
2006-12-19 07:55:04 51°14.069 2°53.274 9.1302 3.504142 31.322929 -2.871232
2006-12-19 07:55:09 51°14.059 2°53.25 9.1284 3.505695 31.330889 -2.871232
2006-12-19 07:55:14 51°14.049 2°53.226 9.1254 3.507973 31.34604 -2.871232
2006-12-19 07:55:19 51°14.039 2°53.202 9.1251 3.509009 31.350514 -2.871232
2006-12-19 07:55:24 51°14.029 2°53.179 9.1273 3.509009 31.350514 -2.871232
2006-12-19 07:55:29 51°14.019 2°53.155 9.1302 3.509734 31.352735 -2.871232
2006-12-19 07:55:33 51°14.011 2°53.136 9.1306 3.509527 31.345712 -2.871232
2006-12-19 07:55:39 51°14 2°53.107 9.1332 3.509734 31.344454 -2.871232
2006-12-19 07:55:44 51°13.99 2°53.083 9.1342 3.510562 31.352669 -2.871232
2006-12-19 07:55:49 51°13.98 2°53.059 9.1382 3.510562 31.351841 -2.871232
2006-12-19 07:55:54 51°13.97 2°53.035 9.1402 3.510562 31.351841 -2.871232
2006-12-19 07:55:59 51°13.961 2°53.011 9.1472 3.510562 31.351013 -2.871232
2006-12-19 07:56:03 51°13.952 2°52.992 9.1475 3.510459 31.34833 -2.871232
2006-12-19 07:56:09 51°13.941 2°52.963 9.1482 3.510873 31.351609 -2.871232
2006-12-19 07:56:14 51°13.931 2°52.939 9.1509 3.511184 31.352206 -2.871232
2006-12-19 07:56:19 51°13.921 2°52.915 9.1471 3.510873 31.346642 -2.871232
2006-12-19 07:56:23 51°13.913 2°52.896 9.1512 3.510873 31.346642 -2.871232
2006-12-19 07:56:29 51°13.901 2°52.866 9.1544 3.510873 31.343332 -2.871232
2006-12-19 07:56:34 51°13.891 2°52.842 9.1566 3.510769 31.339823 -2.871232
2006-12-19 07:56:39 51°13.88 2°52.817 9.1578 3.51108 31.341248 -2.871232
2006-12-19 07:56:44 51°13.87 2°52.792 9.1628 3.511391 31.341845 -2.871232
2006-12-19 07:56:48 51°13.862 2°52.773 9.1669 3.51284 31.355387 -2.871232
2006-12-19 07:56:54 51°13.85 2°52.743 9.1724 3.51284 31.355387 -2.871232
2006-12-19 07:56:59 51°13.84 2°52.718 9.1737 3.513255 31.357009 -2.871232
2006-12-19 07:57:04 51°13.83 2°52.693 9.1797 3.513669 31.358632 -2.871232
2006-12-19 07:57:09 51°13.82 2°52.668 9.1817 3.51429 31.363134 -2.871232
2006-12-19 07:57:14 51°13.809 2°52.643 9.1837 3.514497 31.361048 -2.871232
2006-12-19 07:57:19 51°13.799 2°52.618 9.1846 3.514704 31.359791 -2.871232
2006-12-19 07:57:23 51°13.791 2°52.598 9.187 3.514704 31.359791 -2.871232
2006-12-19 07:57:29 51°13.779 2°52.568 9.191 3.514601 31.354629 -2.871232
2006-12-19 07:57:34 51°13.768 2°52.543 9.1942 3.515015 31.354597 -2.871232
2006-12-19 07:57:39 51°13.758 2°52.517 9.2003 3.515326 31.353539 -2.871232
2006-12-19 07:57:44 51°13.748 2°52.493 9.2035 3.515844 31.356186 -2.871232
2006-12-19 07:57:49 51°13.738 2°52.467 9.2067 3.516258 31.356981 -2.871232
2006-12-19 07:57:54 51°13.727 2°52.442 9.2114 3.516258 31.356981 -2.871232
2006-12-19 07:58:00 51°13.715 2°52.412 9.2153 3.516776 31.360455 -2.871232
2006-12-19 07:58:04 51°13.707 2°52.392 9.2172 3.517293 31.362275 -2.871232
2006-12-19 07:58:09 51°13.696 2°52.367 9.2207 3.517708 31.361416 -2.871232
2006-12-19 07:58:13 51°13.688 2°52.347 9.2225 3.518018 31.361185 -2.871232
2006-12-19 07:58:19 51°13.676 2°52.317 9.2264 3.518536 31.362178 -2.871232
2006-12-19 07:58:24 51°13.666 2°52.292 9.228 3.518536 31.362178 -2.871232
2006-12-19 07:58:29 51°13.655 2°52.267 9.2294 3.518743 31.360096 -2.871232
2006-12-19 07:58:34 51°13.645 2°52.241 9.2297 3.519468 31.363138 -2.871232
2006-12-19 07:58:39 51°13.635 2°52.217 9.232 3.520193 31.367833 -2.871232
2006-12-19 07:58:43 51°13.627 2°52.196 9.233 3.5204 31.366577 -2.871232
2006-12-19 07:58:50 51°13.612 2°52.161 9.2325 3.520504 31.363471 -2.871232
2006-12-19 07:58:54 51°13.604 2°52.141 9.2411 3.520504 31.363471 -2.871232
2006-12-19 07:58:59 51°13.594 2°52.116 9.2411 3.520814 31.364893 -2.871232
2006-12-19 07:59:03 51°13.586 2°52.096 9.2385 3.521125 31.365488 -2.871232
2006-12-19 07:59:09 51°13.573 2°52.067 9.245 3.521332 31.365885 -2.871232
2006-12-19 07:59:14 51°13.563 2°52.041 9.2469 3.521436 31.366083 -2.871232
2006-12-19 07:59:19 51°13.553 2°52.017 9.2484 3.521746 31.367505 -2.871232
2006-12-19 07:59:24 51°13.543 2°51.991 9.2489 3.521746 31.367505 -2.871232
2006-12-19 07:59:29 51°13.532 2°51.966 9.2539 3.521435 31.361129 -2.871232
2006-12-19 07:59:34 51°13.523 2°51.941 9.2519 3.521746 31.361725 -2.871232
2006-12-19 07:59:39 51°13.512 2°51.916 9.2548 3.52185 31.361098 -2.871232
2006-12-19 07:59:43 51°13.504 2°51.895 9.2554 3.522057 31.360669 -2.871232
2006-12-19 07:59:49 51°13.492 2°51.865 9.2588 3.522471 31.362289 -2.871232
2006-12-19 07:59:54 51°13.482 2°51.84 9.2596 3.522471 31.362289 -2.871232
2006-12-19 07:59:59 51°13.472 2°51.815 9.2636 3.522885 31.363908 -2.871232
2006-12-19 08:00:03 51°13.464 2°51.794 9.2616 3.523092 31.364305 -2.871232
2006-12-19 08:00:09 51°13.452 2°51.764 9.2623 3.523403 31.365726 -2.871232
2006-12-19 08:00:14 51°13.442 2°51.739 9.2654 3.52361 31.366123 -2.871232
2006-12-19 08:00:19 51°13.431 2°51.714 9.2704 3.523507 31.363449 -2.871232
2006-12-19 08:00:24 51°13.421 2°51.688 9.2705 3.523507 31.363449 -2.871232
2006-12-19 08:00:29 51°13.411 2°51.662 9.2664 3.523403 31.360775 -2.871232
2006-12-19 08:00:34 51°13.401 2°51.636 9.2678 3.523299 31.357276 -2.871232
2006-12-19 08:00:39 51°13.39 2°51.61 9.2666 3.523299 31.357276 -2.871232
2006-12-19 08:00:43 51°13.381 2°51.589 9.2708 3.522885 31.351533 -2.871232
2006-12-19 08:00:49 51°13.369 2°51.557 9.2666 3.522471 31.344141 -2.871232
2006-12-19 08:00:54 51°13.358 2°51.531 9.2687 3.522471 31.344141 -2.871232
2006-12-19 08:00:59 51°13.348 2°51.503 9.2667 3.522678 31.345363 -2.871232
2006-12-19 08:01:04 51°13.336 2°51.477 9.2694 3.522678 31.344539 -2.871232
2006-12-19 08:01:09 51°13.327 2°51.45 9.2606 3.483634 30.959116 -2.871232
2006-12-19 08:01:14 51°13.315 2°51.424 9.2648 3.412909 30.261832 -2.871232
2006-12-19 08:01:19 51°13.305 2°51.396 9.261 3.365386 29.795064 -2.871232
2006-12-19 08:01:24 51°13.294 2°51.37 9.2657 3.365386 29.795064 -2.871232
2006-12-19 08:01:29 51°13.284 2°51.342 9.2529 3.394997 30.085783 -2.871232
2006-12-19 08:01:34 51°13.273 2°51.315 9.2559 3.462405 30.749827 -2.871232
2006-12-19 08:01:39 51°13.262 2°51.288 9.2642 3.465201 30.778999 -2.871232
2006-12-19 08:01:44 51°13.252 2°51.261 9.2656 3.445112 30.581898 -2.871232
2006-12-19 08:01:49 51°13.241 2°51.234 9.2701 3.435689 30.489929 -2.871232
2006-12-19 08:01:54 51°13.23 2°51.207 9.2729 3.435689 30.489929 -2.871232
2006-12-19 08:01:59 51°13.219 2°51.18 9.2811 3.453293 30.664887 -2.871232
2006-12-19 08:02:04 51°13.209 2°51.153 9.2809 3.441902 30.555914 -2.871232
2006-12-19 08:02:09 51°13.198 2°51.126 9.2816 3.453086 30.66446 -2.871232
2006-12-19 08:02:14 51°13.187 2°51.099 9.287 3.454328 30.674282 -2.871232
2006-12-19 08:02:18 51°13.178 2°51.077 9.2829 3.44739 30.602723 -2.871232
2006-12-19 08:02:23 51°13.168 2°51.05 9.2824 3.44739 30.602723 -2.871232
2006-12-19 08:02:29 51°13.155 2°51.017 9.2782 3.381433 29.950997 -2.871232
2006-12-19 08:02:34 51°13.144 2°50.99 9.2827 3.398413 30.113021 -2.871232
2006-12-19 08:02:39 51°13.134 2°50.962 9.2815 3.446044 30.579015 -2.871232
2006-12-19 08:02:44 51°13.123 2°50.935 9.2863 3.438588 30.503231 -2.871232
2006-12-19 08:02:49 51°13.112 2°50.908 9.2858 3.465615 30.768518 -2.871232
2006-12-19 08:02:54 51°13.101 2°50.881 9.2858 3.465615 30.768518 -2.871232
2006-12-19 08:02:59 51°13.09 2°50.854 9.2914 3.387231 29.998467 -2.871232
2006-12-19 08:03:04 51°13.08 2°50.826 9.2936 3.451221 30.628377 -2.871232
2006-12-19 08:03:09 51°13.069 2°50.8 9.2993 3.436103 30.47878 -2.871232
2006-12-19 08:03:14 51°13.059 2°50.772 9.2918 3.439831 30.514656 -2.871232
2006-12-19 08:03:19 51°13.047 2°50.745 9.2963 3.471725 30.827094 -2.871232
2006-12-19 08:03:23 51°13.039 2°50.723 9.291 3.471725 30.827094 -2.871232
2006-12-19 08:03:30 51°13.024 2°50.685 9.291 3.420571 30.322832 -2.871232
2006-12-19 08:03:34 51°13.016 2°50.663 9.2884 3.46779 30.785087 -2.871232
2006-12-19 08:03:39 51°13.005 2°50.636 9.2895 3.465201 30.757162 -2.871232
2006-12-19 08:03:44 51°12.995 2°50.608 9.2868 3.464994 30.754315 -2.871232
2006-12-19 08:03:48 51°12.986 2°50.587 9.2849 3.377292 29.892271 -2.871232
2006-12-19 08:03:54 51°12.973 2°50.554 9.283 3.377292 29.892271 -2.871232
2006-12-19 08:03:59 51°12.963 2°50.527 9.2877 3.462716 30.731879 -2.871232
2006-12-19 08:04:04 51°12.952 2°50.5 9.2891 3.442005 30.529636 -2.871232
2006-12-19 08:04:09 51°12.941 2°50.472 9.2894 3.463441 30.741441 -2.871232
2006-12-19 08:04:14 51°12.93 2°50.445 9.2955 3.427302 30.386612 -2.871232
2006-12-19 08:04:19 51°12.92 2°50.418 9.2917 3.46924 30.800988 -2.871232
2006-12-19 08:04:23 51°12.911 2°50.396 9.2936 3.46924 30.800988 -2.871232
2006-12-19 08:04:29 51°12.898 2°50.364 9.2903 3.410113 30.220047 -2.871232
2006-12-19 08:04:34 51°12.887 2°50.337 9.2892 3.469965 30.80732 -2.871232
2006-12-19 08:04:39 51°12.877 2°50.309 9.2883 3.452153 30.631112 -2.871232
2006-12-19 08:04:44 51°12.866 2°50.282 9.2862 3.443248 30.540257 -2.871232
2006-12-19 08:04:49 51°12.856 2°50.254 9.2833 3.464787 30.751467 -2.871232
2006-12-19 08:04:54 51°12.846 2°50.227 9.2826 3.464787 30.751467 -2.871232
2006-12-19 08:04:58 51°12.837 2°50.205 9.2916 3.462716 30.731072 -2.871232
2006-12-19 08:05:04 51°12.826 2°50.172 9.2882 3.469654 30.801021 -2.871232
2006-12-19 08:05:09 51°12.815 2°50.144 9.2874 3.451428 30.622367 -2.871232
2006-12-19 08:05:14 51°12.805 2°50.117 9.2944 3.455881 30.667811 -2.871232
2006-12-19 08:05:19 51°12.795 2°50.089 9.2951 3.443559 30.547327 -2.871232
2006-12-19 08:05:23 51°12.786 2°50.067 9.2993 3.443559 30.547327 -2.871232
2006-12-19 08:05:30 51°12.772 2°50.028 9.2961 3.357413 29.702031 -2.871232
2006-12-19 08:05:34 51°12.764 2°50.006 9.2979 3.475453 30.860586 -2.871232
2006-12-19 08:05:39 51°12.753 2°49.979 9.2988 3.410942 30.225804 -2.871232
2006-12-19 08:05:43 51°12.746 2°49.956 9.2958 3.472036 30.825295 -2.871232
2006-12-19 08:05:49 51°12.733 2°49.923 9.295 3.434964 30.458769 -2.871232
2006-12-19 08:05:54 51°12.723 2°49.895 9.2934 3.434964 30.458769 -2.871232
2006-12-19 08:06:00 51°12.711 2°49.862 9.2975 3.478042 30.880418 -2.871232
2006-12-19 08:06:04 51°12.703 2°49.84 9.2957 3.457745 30.679714 -2.871232
2006-12-19 08:06:10 51°12.691 2°49.806 9.2945 3.424195 30.348894 -2.871232
2006-12-19 08:06:14 51°12.683 2°49.784 9.2971 3.444905 30.553348 -2.871232
2006-12-19 08:06:20 51°12.671 2°49.751 9.2998 3.471725 30.818185 -2.871232
2006-12-19 08:06:24 51°12.663 2°49.729 9.2951 3.471725 30.818185 -2.871232
2006-12-19 08:06:28 51°12.655 2°49.707 9.2949 3.460852 30.711911 -2.871232
2006-12-19 08:06:34 51°12.643 2°49.674 9.293 3.472139 30.822265 -2.871232
2006-12-19 08:06:39 51°12.633 2°49.647 9.2919 3.451532 30.619364 -2.871232
2006-12-19 08:06:44 51°12.623 2°49.619 9.2897 3.402969 30.141145 -2.871232
2006-12-19 08:06:49 51°12.613 2°49.592 9.2917 3.442109 30.525041 -2.871232
2006-12-19 08:06:54 51°12.603 2°49.564 9.2937 3.442109 30.525041 -2.871232
2006-12-19 08:06:59 51°12.593 2°49.536 9.2945 3.457227 30.675423 -2.871232
2006-12-19 08:07:04 51°12.582 2°49.509 9.2964 3.412805 30.238557 -2.871232
2006-12-19 08:07:10 51°12.571 2°49.476 9.2926 3.419225 30.30323 -2.871232
2006-12-19 08:07:14 51°12.562 2°49.454 9.2927 3.441695 30.524976 -2.871232
2006-12-19 08:07:20 51°12.551 2°49.422 9.2954 3.463855 30.743905 -2.871232
2006-12-19 08:07:24 51°12.543 2°49.4 9.2965 3.463855 30.743905 -2.871232
2006-12-19 08:07:30 51°12.531 2°49.367 9.2978 3.404108 30.155498 -2.871232
2006-12-19 08:07:34 51°12.523 2°49.345 9.2999 3.450186 30.607724 -2.871232
2006-12-19 08:07:40 51°12.51 2°49.313 9.2997 3.465926 30.762685 -2.871232
2006-12-19 08:07:44 51°12.503 2°49.29 9.2991 3.466029 30.763705 -2.871232
2006-12-19 08:07:50 51°12.491 2°49.258 9.2989 3.446251 30.568199 -2.871232
2006-12-19 08:07:54 51°12.483 2°49.236 9.3007 3.446251 30.568199 -2.871232
2006-12-19 08:08:00 51°12.471 2°49.203 9.304 3.473071 30.831446 -2.871232
2006-12-19 08:08:04 51°12.463 2°49.181 9.3026 3.438381 30.489175 -2.871232
2006-12-19 08:08:09 51°12.452 2°49.154 9.3065 3.463855 30.739058 -2.871232
2006-12-19 08:08:14 51°12.443 2°49.127 9.3075 3.462405 30.723977 -2.871232
2006-12-19 08:08:20 51°12.43 2°49.095 9.3101 3.480113 30.898391 -2.871232
2006-12-19 08:08:24 51°12.422 2°49.072 9.3082 3.480113 30.898391 -2.871232
2006-12-19 08:08:29 51°12.411 2°49.046 9.313 3.463751 30.735616 -2.871232
2006-12-19 08:08:34 51°12.402 2°49.018 9.3105 3.437863 30.480079 -2.871232
2006-12-19 08:08:39 51°12.392 2°48.991 9.3078 3.4506 30.60376 -2.871232
2006-12-19 08:08:44 51°12.382 2°48.964 9.3083 3.443765 30.534923 -2.871232
2006-12-19 08:08:49 51°12.372 2°48.937 9.3118 3.45702 30.664522 -2.871232
2006-12-19 08:08:54 51°12.362 2°48.91 9.3163 3.45702 30.664522 -2.871232
2006-12-19 08:09:00 51°12.35 2°48.877 9.3153 3.451842 30.611967 -2.871232
2006-12-19 08:09:04 51°12.342 2°48.855 9.3217 3.471414 30.802985 -2.871232
2006-12-19 08:09:10 51°12.33 2°48.823 9.3203 3.46344 30.724487 -2.871232
2006-12-19 08:09:14 51°12.322 2°48.801 9.3214 3.469654 30.78646 -2.871232
2006-12-19 08:09:20 51°12.31 2°48.769 9.3215 3.45412 30.631968 -2.871232
2006-12-19 08:09:24 51°12.301 2°48.747 9.3243 3.45412 30.631968 -2.871232
2006-12-19 08:09:30 51°12.29 2°48.714 9.3189 3.367766 29.782422 -2.871232
2006-12-19 08:09:34 51°12.281 2°48.693 9.3224 3.471 30.794054 -2.871232
2006-12-19 08:09:39 51°12.271 2°48.666 9.3204 3.445422 30.53999 -2.871232
2006-12-19 08:09:44 51°12.261 2°48.638 9.3188 3.451946 30.603341 -2.871232
2006-12-19 08:09:49 51°12.251 2°48.611 9.321 3.470482 30.784915 -2.871232
2006-12-19 08:09:54 51°12.241 2°48.584 9.3213 3.470482 30.784915 -2.871232
2006-12-19 08:10:00 51°12.229 2°48.551 9.3173 3.442626 30.510098 -2.871232
2006-12-19 08:10:03 51°12.223 2°48.535 9.3188 3.46199 30.700543 -2.871232
2006-12-19 08:10:10 51°12.208 2°48.496 9.3135 3.454017 30.622103 -2.871232
2006-12-19 08:10:14 51°12.2 2°48.474 9.3163 3.449461 30.578097 -2.871232
2006-12-19 08:10:19 51°12.191 2°48.447 9.3126 3.451014 30.592569 -2.871232
2006-12-19 08:10:24 51°12.18 2°48.42 9.3151 3.451014 30.592569 -2.871232
2006-12-19 08:10:29 51°12.171 2°48.392 9.3134 3.455984 30.64226 -2.871232
2006-12-19 08:10:34 51°12.16 2°48.365 9.3155 3.458573 30.667727 -2.871232
2006-12-19 08:10:39 51°12.15 2°48.337 9.3118 3.452153 30.606182 -2.871232
2006-12-19 08:10:44 51°12.14 2°48.31 9.3131 3.459298 30.67808 -2.871232
2006-12-19 08:10:48 51°12.132 2°48.289 9.3115 3.476488 30.848093 -2.871232
2006-12-19 08:10:54 51°12.119 2°48.256 9.3152 3.476488 30.848093 -2.871232
2006-12-19 08:10:59 51°12.11 2°48.228 9.3159 3.462198 30.708224 -2.871232
2006-12-19 08:11:04 51°12.099 2°48.201 9.3125 3.446251 30.551344 -2.871232
2006-12-19 08:11:10 51°12.087 2°48.168 9.3134 3.458987 30.67744 -2.871232
2006-12-19 08:11:15 51°12.078 2°48.14 9.3138 3.475971 30.844614 -2.871232
2006-12-19 08:11:20 51°12.067 2°48.113 9.3133 3.4477 30.566403 -2.871232
2006-12-19 08:11:24 51°12.059 2°48.09 9.3165 3.4477 30.566403 -2.871232
2006-12-19 08:11:29 51°12.05 2°48.063 9.3155 3.477006 30.854812 -2.871232
2006-12-19 08:11:34 51°12.04 2°48.035 9.3174 3.39541 30.051936 -2.871232
2006-12-19 08:11:39 51°12.03 2°48.008 9.3189 3.470378 30.788746 -2.871232
2006-12-19 08:11:44 51°12.02 2°47.98 9.3127 3.402244 30.118997 -2.871232
2006-12-19 08:11:49 51°12.01 2°47.952 9.3132 3.449254 30.580877 -2.871232
2006-12-19 08:11:54 51°12 2°47.925 9.312 3.449254 30.580877 -2.871232
2006-12-19 08:11:59 51°11.99 2°47.897 9.3123 3.414669 30.240188 -2.871232
2006-12-19 08:12:03 51°11.982 2°47.875 9.3127 3.437759 30.466258 -2.871232
2006-12-19 08:12:10 51°11.968 2°47.836 9.3122 3.445836 30.544864 -2.871232
2006-12-19 08:12:14 51°11.96 2°47.814 9.3116 3.465511 30.740029 -2.871232
2006-12-19 08:12:20 51°11.948 2°47.781 9.3104 3.456088 30.648107 -2.871232
2006-12-19 08:12:24 51°11.94 2°47.759 9.3101 3.456088 30.648107 -2.871232
2006-12-19 08:12:29 51°11.93 2°47.731 9.3129 3.459195 30.679478 -2.871232
2006-12-19 08:12:34 51°11.92 2°47.703 9.313 3.482805 30.91274 -2.871232
2006-12-19 08:12:39 51°11.91 2°47.676 9.3129 3.463337 30.721047 -2.871232
2006-12-19 08:12:43 51°11.902 2°47.653 9.3137 3.400484 30.103302 -2.871232
2006-12-19 08:12:49 51°11.89 2°47.62 9.3136 3.470171 30.789133 -2.871232
2006-12-19 08:12:54 51°11.88 2°47.593 9.316 3.470171 30.789133 -2.871232
2006-12-19 08:12:59 51°11.871 2°47.565 9.3149 3.458055 30.66988 -2.871232
2006-12-19 08:13:03 51°11.862 2°47.543 9.3146 3.46313 30.719815 -2.871232
2006-12-19 08:13:10 51°11.848 2°47.505 9.3124 3.437138 30.46415 -2.871232
2006-12-19 08:13:15 51°11.838 2°47.477 9.3124 3.473071 30.817681 -2.871232
2006-12-19 08:13:20 51°11.828 2°47.45 9.3197 3.431754 30.409624 -2.871232
2006-12-19 08:13:24 51°11.82 2°47.428 9.3164 3.431754 30.409624 -2.871232
2006-12-19 08:13:28 51°11.812 2°47.406 9.3241 3.478042 30.8642 -2.871232
2006-12-19 08:13:34 51°11.8 2°47.372 9.3266 3.477524 30.859101 -2.871232
2006-12-19 08:13:40 51°11.788 2°47.34 9.3245 3.432996 30.421837 -2.871232
2006-12-19 08:13:44 51°11.78 2°47.317 9.3259 3.42668 30.359765 -2.871232
2006-12-19 08:13:49 51°11.769 2°47.29 9.3252 3.46168 30.702322 -2.871232
2006-12-19 08:13:53 51°11.762 2°47.268 9.3234 3.46168 30.702322 -2.871232
2006-12-19 08:13:59 51°11.75 2°47.235 9.3204 3.391683 30.013002 -2.871232
2006-12-19 08:14:04 51°11.74 2°47.208 9.3191 3.441384 30.498683 -2.871232
2006-12-19 08:14:10 51°11.728 2°47.174 9.3173 3.484152 30.917071 -2.871232
2006-12-19 08:14:14 51°11.72 2°47.153 9.3166 3.466029 30.737862 -2.871232
2006-12-19 08:14:20 51°11.708 2°47.12 9.3179 3.481977 30.894033 -2.871232
2006-12-19 08:14:24 51°11.7 2°47.098 9.3151 3.481977 30.894033 -2.871232
2006-12-19 08:14:29 51°11.692 2°47.069 9.3107 3.453913 30.618674 -2.871232
2006-12-19 08:14:34 51°11.684 2°47.041 9.3089 3.437656 30.460442 -2.871232
2006-12-19 08:14:39 51°11.676 2°47.012 9.3106 3.475867 30.837926 -2.871232
2006-12-19 08:14:43 51°11.671 2°46.988 9.3056 3.462301 30.705211 -2.871232
2006-12-19 08:14:49 51°11.663 2°46.953 9.3046 3.481666 30.89584 -2.871232
2006-12-19 08:14:54 51°11.656 2°46.923 9.3075 3.481666 30.89584 -2.871232
2006-12-19 08:14:59 51°11.65 2°46.893 9.3047 3.4477 30.562391 -2.871232
2006-12-19 08:15:04 51°11.644 2°46.863 9.3026 3.448322 30.570908 -2.871232
2006-12-19 08:15:08 51°11.64 2°46.839 9.2993 3.45526 30.640761 -2.871232
2006-12-19 08:15:14 51°11.633 2°46.802 9.3021 3.477938 30.866422 -2.871232
2006-12-19 08:15:19 51°11.628 2°46.772 9.3009 3.467168 30.7628 -2.871232
2006-12-19 08:15:24 51°11.622 2°46.741 9.2934 3.467168 30.7628 -2.871232
2006-12-19 08:15:29 51°11.617 2°46.711 9.2938 3.419535 30.295141 -2.871232
2006-12-19 08:15:34 51°11.612 2°46.68 9.2917 3.457848 30.673481 -2.871232
2006-12-19 08:15:39 51°11.607 2°46.65 9.286 3.458056 30.677131 -2.871232
2006-12-19 08:15:44 51°11.601 2°46.619 9.2862 3.47711 30.866369 -2.871232
2006-12-19 08:15:49 51°11.596 2°46.589 9.2858 3.452464 30.625318 -2.871232
2006-12-19 08:15:54 51°11.59 2°46.558 9.2875 3.452464 30.625318 -2.871232
2006-12-19 08:15:59 51°11.584 2°46.528 9.2844 3.478145 30.880627 -2.871232
2006-12-19 08:16:04 51°11.579 2°46.497 9.2894 3.422435 30.333186 -2.871232
2006-12-19 08:16:09 51°11.573 2°46.467 9.2914 3.447597 30.583052 -2.871232
2006-12-19 08:16:14 51°11.567 2°46.436 9.2846 3.438485 30.497404 -2.871232
2006-12-19 08:16:19 51°11.562 2°46.405 9.2843 3.448115 30.592969 -2.871232
2006-12-19 08:16:24 51°11.556 2°46.375 9.2833 3.448115 30.592969 -2.871232
2006-12-19 08:16:29 51°11.551 2°46.344 9.2841 3.44097 30.523458 -2.871232
2006-12-19 08:16:33 51°11.547 2°46.32 9.2846 3.470275 30.812 -2.871232
2006-12-19 08:16:39 51°11.54 2°46.283 9.284 3.474003 30.847111 -2.871232
2006-12-19 08:16:44 51°11.535 2°46.252 9.2863 3.4506 30.617432 -2.871232
2006-12-19 08:16:49 51°11.529 2°46.222 9.2831 3.452878 30.641468 -2.871232
2006-12-19 08:16:54 51°11.523 2°46.191 9.2835 3.452878 30.641468 -2.871232
2006-12-19 08:16:59 51°11.518 2°46.161 9.2835 3.467169 30.782203 -2.871232
2006-12-19 08:17:03 51°11.514 2°46.137 9.2894 3.478249 30.892199 -2.871232
2006-12-19 08:17:09 51°11.507 2°46.1 9.2883 3.462509 30.737916 -2.871232
2006-12-19 08:17:14 51°11.502 2°46.07 9.285 3.441384 30.529138 -2.871232
2006-12-19 08:17:19 51°11.496 2°46.039 9.2828 3.455778 30.671628 -2.871232
2006-12-19 08:17:23 51°11.491 2°46.015 9.2869 3.455778 30.671628 -2.871232
2006-12-19 08:17:29 51°11.485 2°45.978 9.2899 3.45236 30.637981 -2.871232
2006-12-19 08:17:34 51°11.479 2°45.948 9.2905 3.470379 30.81464 -2.871232
2006-12-19 08:17:39 51°11.474 2°45.917 9.2936 3.432272 30.438689 -2.871232
2006-12-19 08:17:44 51°11.468 2°45.887 9.2918 3.41674 30.285173 -2.871232
2006-12-19 08:17:48 51°11.464 2°45.863 9.2919 3.468308 30.794234 -2.871232
2006-12-19 08:17:54 51°11.457 2°45.826 9.2941 3.468308 30.794234 -2.871232
2006-12-19 08:17:59 51°11.452 2°45.796 9.2945 3.463026 30.740593 -2.871232
2006-12-19 08:18:04 51°11.447 2°45.765 9.2953 3.412495 30.242655 -2.871232
2006-12-19 08:18:09 51°11.441 2°45.735 9.296 3.485912 30.963675 -2.871232
2006-12-19 08:18:14 51°11.435 2°45.704 9.3006 3.487673 30.980218 -2.871232
2006-12-19 08:18:19 51°11.43 2°45.674 9.3065 3.456295 30.671083 -2.871232
2006-12-19 08:18:24 51°11.424 2°45.644 9.309 3.456295 30.671083 -2.871232
2006-12-19 08:18:29 51°11.419 2°45.614 9.3119 3.429683 30.407635 -2.871232
2006-12-19 08:18:34 51°11.413 2°45.583 9.3101 3.46023 30.707407 -2.871232
2006-12-19 08:18:40 51°11.407 2°45.547 9.3138 3.433928 30.446985 -2.871232
2006-12-19 08:18:44 51°11.402 2°45.523 9.3166 3.457227 30.674617 -2.871232
2006-12-19 08:18:49 51°11.396 2°45.493 9.3174 3.426266 30.366857 -2.871232
2006-12-19 08:18:54 51°11.391 2°45.463 9.3221 3.426266 30.366857 -2.871232
2006-12-19 08:18:59 51°11.385 2°45.433 9.3207 3.389716 30.004731 -2.871232
2006-12-19 08:19:04 51°11.379 2°45.402 9.3246 3.432789 30.425393 -2.871232
2006-12-19 08:19:09 51°11.374 2°45.373 9.3267 3.471103 30.799926 -2.871232
2006-12-19 08:19:14 51°11.368 2°45.342 9.3297 3.477627 30.860931 -2.871232
2006-12-19 08:19:19 51°11.363 2°45.312 9.3271 3.463958 30.725549 -2.871232
2006-12-19 08:19:23 51°11.358 2°45.288 9.3297 3.463958 30.725549 -2.871232
2006-12-19 08:19:29 51°11.352 2°45.251 9.3325 3.480009 30.881144 -2.871232
2006-12-19 08:19:34 51°11.346 2°45.221 9.3327 3.458884 30.670784 -2.871232
2006-12-19 08:19:39 51°11.34 2°45.191 9.3333 3.472035 30.798588 -2.871232
2006-12-19 08:19:43 51°11.336 2°45.167 9.3359 3.479284 30.867522 -2.871232
2006-12-19 08:19:49 51°11.329 2°45.13 9.3452 3.460851 30.685307 -2.871232
2006-12-19 08:19:54 51°11.324 2°45.099 9.3494 3.460851 30.685307 -2.871232
2006-12-19 08:19:59 51°11.319 2°45.069 9.3479 3.493161 31.000935 -2.871232
2006-12-19 08:20:04 51°11.314 2°45.038 9.3527 3.43341 30.411535 -2.871232
2006-12-19 08:20:08 51°11.311 2°45.013 9.3552 3.462819 30.699023 -2.871232
2006-12-19 08:20:13 51°11.306 2°44.983 9.3569 3.472242 30.78931 -2.871232
2006-12-19 08:20:20 51°11.3 2°44.939 9.3627 3.454949 30.615196 -2.871232
2006-12-19 08:20:24 51°11.296 2°44.915 9.3635 3.454949 30.615196 -2.871232
2006-12-19 08:20:30 51°11.291 2°44.877 9.3611 3.474003 30.799359 -2.871232
2006-12-19 08:20:34 51°11.287 2°44.853 9.3676 3.473278 30.788996 -2.871232
2006-12-19 08:20:40 51°11.281 2°44.816 9.3754 3.478455 30.837508 -2.871232
2006-12-19 08:20:45 51°11.277 2°44.785 9.3694 3.470378 30.755635 -2.871232
2006-12-19 08:20:49 51°11.273 2°44.76 9.3708 3.477213 30.819623 -2.871232
2006-12-19 08:20:54 51°11.268 2°44.73 9.3751 3.477213 30.819623 -2.871232
2006-12-19 08:21:00 51°11.263 2°44.693 9.376 3.436413 30.416294 -2.871232
2006-12-19 08:21:04 51°11.259 2°44.668 9.3785 3.491193 30.953115 -2.871232
2006-12-19 08:21:09 51°11.256 2°44.637 9.3849 3.429682 30.345454 -2.871232
2006-12-19 08:21:15 51°11.251 2°44.6 9.3891 3.481873 30.856562 -2.871232
2006-12-19 08:21:20 51°11.247 2°44.568 9.3956 3.490468 30.939491 -2.871232
2006-12-19 08:21:24 51°11.244 2°44.543 9.407 3.490468 30.939491 -2.871232
2006-12-19 08:21:30 51°11.24 2°44.506 9.4087 3.485601 30.889181 -2.871232
2006-12-19 08:21:35 51°11.236 2°44.475 9.4125 3.4885 30.91527 -2.871232
2006-12-19 08:21:40 51°11.232 2°44.444 9.4213 3.486947 30.896752 -2.871232
2006-12-19 08:21:44 51°11.229 2°44.419 9.4303 3.4885 30.907978 -2.871232
2006-12-19 08:21:49 51°11.226 2°44.388 9.434 3.49461 30.961577 -2.871232
2006-12-19 08:21:55 51°11.222 2°44.351 9.439 3.49461 30.961577 -2.871232
2006-12-19 08:22:00 51°11.219 2°44.32 9.4415 3.512734 31.132532 -2.871232
2006-12-19 08:22:04 51°11.216 2°44.295 9.4469 3.484047 30.845602 -2.871232
2006-12-19 08:22:09 51°11.213 2°44.264 9.4517 3.476384 30.764679 -2.871232
2006-12-19 08:22:15 51°11.209 2°44.226 9.4534 3.509109 31.078957 -2.871232
2006-12-19 08:22:20 51°11.206 2°44.195 9.4572 3.499892 30.982673 -2.871232
2006-12-19 08:22:24 51°11.203 2°44.171 9.4615 3.499892 30.982673 -2.871232
2006-12-19 08:22:30 51°11.2 2°44.133 9.466 3.507245 31.048436 -2.871232
2006-12-19 08:22:34 51°11.198 2°44.107 9.4677 3.509212 31.063709 -2.871232
2006-12-19 08:22:40 51°11.195 2°44.069 9.4744 3.496577 30.934727 -2.871232
2006-12-19 08:22:44 51°11.193 2°44.044 9.4801 3.477937 30.74773 -2.871232
2006-12-19 08:22:49 51°11.19 2°44.013 9.4828 3.494402 30.904478 -2.871232
2006-12-19 08:22:54 51°11.188 2°43.982 9.489 3.494402 30.904478 -2.871232
2006-12-19 08:23:00 51°11.185 2°43.944 9.4933 3.501445 30.969566 -2.871232
2006-12-19 08:23:04 51°11.184 2°43.919 9.4951 3.495231 30.905337 -2.871232
2006-12-19 08:23:09 51°11.182 2°43.887 9.4979 3.50538 30.999289 -2.871232
2006-12-19 08:23:15 51°11.179 2°43.85 9.5008 3.496784 30.910076 -2.871232
2006-12-19 08:23:20 51°11.178 2°43.818 9.5048 3.502687 30.963145 -2.871232
2006-12-19 08:23:24 51°11.176 2°43.793 9.5058 3.502687 30.963145 -2.871232
2006-12-19 08:23:29 51°11.174 2°43.761 9.5093 3.513976 31.069068 -2.871232
2006-12-19 08:23:35 51°11.172 2°43.723 9.512 3.492227 30.851665 -2.871232
2006-12-19 08:23:40 51°11.17 2°43.692 9.5274 3.519672 31.116855 -2.871232
2006-12-19 08:23:44 51°11.169 2°43.667 9.5205 3.512215 31.040431 -2.871232
2006-12-19 08:23:50 51°11.166 2°43.629 9.5207 3.496577 30.884634 -2.871232
2006-12-19 08:23:55 51°11.165 2°43.597 9.5251 3.496577 30.884634 -2.871232
2006-12-19 08:24:00 51°11.163 2°43.566 9.5269 3.474311 30.663254 -2.871232
2006-12-19 08:24:04 51°11.161 2°43.541 9.5308 3.527543 31.181908 -2.871232
2006-12-19 08:24:09 51°11.159 2°43.509 9.5343 3.491399 30.82341 -2.871232
2006-12-19 08:24:15 51°11.157 2°43.471 9.5402 3.483631 30.743308 -2.871232
2006-12-19 08:24:20 51°11.156 2°43.44 9.5453 3.512525 31.024031 -2.871232
2006-12-19 08:24:24 51°11.154 2°43.415 9.5522 3.512525 31.024031 -2.871232
2006-12-19 08:24:29 51°11.153 2°43.383 9.5612 3.53096 31.202419 -2.871232
2006-12-19 08:24:35 51°11.151 2°43.346 9.5665 3.52516 31.141452 -2.871232
2006-12-19 08:24:40 51°11.15 2°43.314 9.5723 3.513043 31.020201 -2.871232
2006-12-19 08:24:45 51°11.149 2°43.283 9.5772 3.524953 31.132108 -2.871232
2006-12-19 08:24:50 51°11.148 2°43.251 9.5803 3.542457 31.298913 -2.871232
2006-12-19 08:24:54 51°11.148 2°43.226 9.5833 3.542457 31.298913 -2.871232
2006-12-19 08:25:00 51°11.146 2°43.188 9.5863 3.5205 31.0779 -2.871232
2006-12-19 08:25:05 51°11.145 2°43.156 9.5901 3.531374 31.177187 -2.871232
2006-12-19 08:25:10 51°11.144 2°43.125 9.5922 3.541939 31.273434 -2.871232
2006-12-19 08:25:14 51°11.143 2°43.099 9.5996 3.538728 31.236253 -2.871232
2006-12-19 08:25:20 51°11.142 2°43.062 9.6016 3.510971 30.959505 -2.871232
2006-12-19 08:25:24 51°11.141 2°43.036 9.6072 3.510971 30.959505 -2.871232
2006-12-19 08:25:29 51°11.14 2°43.004 9.6107 3.544942 31.288204 -2.871232
2006-12-19 08:25:35 51°11.138 2°42.965 9.617 3.526817 31.107372 -2.871232
2006-12-19 08:25:39 51°11.138 2°42.942 9.6188 3.49554 30.798074 -2.871232
2006-12-19 08:25:44 51°11.137 2°42.912 9.6249 3.523399 31.06581 -2.871232
2006-12-19 08:25:49 51°11.135 2°42.881 9.6284 3.525677 31.084067 -2.871232
2006-12-19 08:25:54 51°11.134 2°42.85 9.632 3.525677 31.084067 -2.871232
2006-12-19 08:26:00 51°11.133 2°42.812 9.6348 3.550328 31.321413 -2.871232
2006-12-19 08:26:04 51°11.132 2°42.788 9.6374 3.462401 30.456805 -2.871232
2006-12-19 08:26:10 51°11.13 2°42.75 9.6395 3.533652 31.149165 -2.871232
2006-12-19 08:26:14 51°11.129 2°42.725 9.6396 3.536863 31.174913 -2.871232
2006-12-19 08:26:20 51°11.128 2°42.687 9.6396 3.524538 31.049465 -2.871232
2006-12-19 08:26:24 51°11.128 2°42.663 9.6417 3.524538 31.049465 -2.871232
2006-12-19 08:26:29 51°11.127 2°42.635 9.639 3.549499 31.289663 -2.871232
2006-12-19 08:26:35 51°11.125 2°42.603 9.636 3.547738 31.269171 -2.871232
2006-12-19 08:26:39 51°11.124 2°42.583 9.6291 3.566174 31.446435 -2.871232
2006-12-19 08:26:44 51°11.123 2°42.558 9.6214 3.550741 31.292874 -2.871232
2006-12-19 08:26:49 51°11.121 2°42.535 9.6234 3.549395 31.278068 -2.871232
2006-12-19 08:26:55 51°11.12 2°42.508 9.6164 3.549395 31.278068 -2.871232
2006-12-19 08:27:00 51°11.119 2°42.486 9.6113 3.546598 31.249888 -2.871232
2006-12-19 08:27:04 51°11.118 2°42.469 9.6075 3.520913 30.999494 -2.871232
2006-12-19 08:27:09 51°11.117 2°42.449 9.6047 3.500614 30.803572 -2.871232
2006-12-19 08:27:14 51°11.116 2°42.428 9.6012 3.504653 30.847837 -2.871232
2006-12-19 08:27:20 51°11.114 2°42.405 9.5996 3.549084 31.285607 -2.871232
2006-12-19 08:27:24 51°11.113 2°42.39 9.6012 3.549084 31.285607 -2.871232
2006-12-19 08:27:29 51°11.113 2°42.371 9.6042 3.551259 31.310976 -2.871232
2006-12-19 08:27:34 51°11.112 2°42.353 9.6125 3.553642 31.339199 -2.871232
2006-12-19 08:27:39 51°11.111 2°42.336 9.6217 3.549706 31.304725 -2.871232
2006-12-19 08:27:44 51°11.111 2°42.319 9.63 3.548567 31.296826 -2.871232
2006-12-19 08:27:50 51°11.11 2°42.3 9.6375 3.486116 30.688353 -2.871232
2006-12-19 08:27:54 51°11.109 2°42.287 9.6461 3.486116 30.688353 -2.871232
2006-12-19 08:28:00 51°11.108 2°42.268 9.6534 3.538313 31.19885 -2.871232
2006-12-19 08:28:05 51°11.107 2°42.253 9.6573 3.531788 31.132539 -2.871232
2006-12-19 08:28:09 51°11.107 2°42.241 9.6642 3.547427 31.279966 -2.871232
2006-12-19 08:28:15 51°11.105 2°42.224 9.6656 3.544009 31.239992 -2.871232
2006-12-19 08:28:19 51°11.104 2°42.212 9.669 3.559028 31.379707 -2.871232
2006-12-19 08:28:24 51°11.104 2°42.198 9.6726 3.559028 31.379707 -2.871232
2006-12-19 08:28:29 51°11.103 2°42.183 9.6773 3.55447 31.326929 -2.871232
2006-12-19 08:28:34 51°11.103 2°42.169 9.6781 3.573632 31.50802 -2.871232
2006-12-19 08:28:40 51°11.102 2°42.153 9.681 3.539555 31.168821 -2.871232
2006-12-19 08:28:44 51°11.101 2°42.141 9.6826 3.561617 31.378939 -2.871232
2006-12-19 08:28:49 51°11.101 2°42.128 9.6836 3.559752 31.356619 -2.871232
2006-12-19 08:28:54 51°11.1 2°42.114 9.6847 3.559752 31.356619 -2.871232
2006-12-19 08:29:00 51°11.099 2°42.1 9.6883 3.57415 31.493434 -2.871232
2006-12-19 08:29:04 51°11.099 2°42.091 9.6878 3.570421 31.452848 -2.871232
2006-12-19 08:29:09 51°11.098 2°42.08 9.6879 3.567002 31.416952 -2.871232
2006-12-19 08:29:14 51°11.097 2°42.071 9.6897 3.582332 31.563704 -2.871232
2006-12-19 08:29:20 51°11.096 2°42.062 9.6898 3.557473 31.318045 -2.871232
2006-12-19 08:29:24 51°11.096 2°42.058 9.6903 3.557473 31.318045 -2.871232
2006-12-19 08:29:29 51°11.094 2°42.054 9.6898 3.552502 31.267813 -2.871232
2006-12-19 08:29:34 51°11.093 2°42.052 9.6915 3.534066 31.086055 -2.871232
2006-12-19 08:29:40 51°11.093 2°42.051 9.6904 3.55913 31.329366 -2.871232
2006-12-19 08:29:45 51°11.093 2°42.051 9.6912 3.556541 31.303237 -2.871232
2006-12-19 08:29:49 51°11.092 2°42.053 9.6912 3.531269 31.056325 -2.871232
2006-12-19 08:29:53 51°11.092 2°42.053 9.693 3.531269 31.056325 -2.871232
2006-12-19 08:29:59 51°11.092 2°42.053 9.6933 3.562548 31.361157 -2.871232
2006-12-19 08:30:04 51°11.092 2°42.053 9.6962 3.566174 31.395792 -2.871232
2006-12-19 08:30:10 51°11.092 2°42.054 9.6956 3.563688 31.370668 -2.871232
2006-12-19 08:30:16 51°11.092 2°42.054 9.6953 3.556334 31.297961 -2.871232
2006-12-19 08:30:21 51°11.091 2°42.055 9.6958 3.535619 31.095575 -2.871232
2006-12-19 08:30:27 51°11.091 2°42.054 9.6948 3.535619 31.095575 -2.871232
2006-12-19 08:30:33 51°11.091 2°42.054 9.696 3.495849 30.706737 -2.871232
2006-12-19 08:30:38 51°11.092 2°42.054 9.6956 3.542351 31.159711 -2.871232
2006-12-19 08:30:43 51°11.092 2°42.053 9.6944 3.539244 31.128554 -2.871232
2006-12-19 08:30:48 51°11.092 2°42.053 9.6946 3.589479 31.618892 -2.871232
2006-12-19 08:30:53 51°11.092 2°42.053 9.6942 3.58026 31.528679 -2.871232
2006-12-19 08:30:58 51°11.092 2°42.053 9.6941 3.58026 31.528679 -2.871232
2006-12-19 08:31:03 51°11.091 2°42.053 9.6943 3.55913 31.322043 -2.871232
2006-12-19 08:31:08 51°11.092 2°42.052 9.6957 3.550948 31.241265 -2.871232
2006-12-19 08:31:12 51°11.092 2°42.052 9.6963 3.536033 31.095583 -2.871232
2006-12-19 08:31:17 51°11.091 2°42.051 9.6945 3.544941 31.182576 -2.871232
2006-12-19 08:31:23 51°11.091 2°42.051 9.6952 3.568038 31.408315 -2.871232
2006-12-19 08:31:27 51°11.092 2°42.05 9.6953 3.568038 31.408315 -2.871232
2006-12-19 08:31:32 51°11.092 2°42.049 9.696 3.586165 31.585631 -2.871232
2006-12-19 08:31:37 51°11.093 2°42.049 9.698 3.562652 31.355655 -2.871232
2006-12-19 08:31:42 51°11.092 2°42.049 9.6968 3.5814 31.539008 -2.871232
2006-12-19 08:31:47 51°11.092 2°42.048 9.6987 3.572078 31.447818 -2.871232
2006-12-19 08:31:52 51°11.091 2°42.048 9.6974 3.558923 31.319205 -2.871232
2006-12-19 08:31:57 51°11.092 2°42.047 9.6976 3.558923 31.319205 -2.871232
2006-12-19 08:32:02 51°11.091 2°42.047 9.698 3.572803 31.454093 -2.871232
2006-12-19 08:32:07 51°11.091 2°42.046 9.6993 3.576532 31.489746 -2.871232
2006-12-19 08:32:12 51°11.09 2°42.047 9.6977 3.581607 31.539397 -2.871232
2006-12-19 08:32:16 51°11.09 2°42.046 9.698 3.570524 31.430175 -2.871232
2006-12-19 08:32:21 51°11.091 2°42.044 9.6986 3.57011 31.426124 -2.871232
2006-12-19 08:32:26 51°11.09 2°42.044 9.7009 3.57011 31.426124 -2.871232
2006-12-19 08:32:31 51°11.089 2°42.044 9.6975 3.555091 31.279313 -2.871232
2006-12-19 08:32:36 51°11.088 2°42.044 9.7004 3.567934 31.40404 -2.871232
2006-12-19 08:32:41 51°11.088 2°42.043 9.6988 3.557162 31.298744 -2.871232
2006-12-19 08:32:45 51°11.088 2°42.043 9.6997 3.569281 31.417205 -2.871232
2006-12-19 08:32:51 51°11.088 2°42.041 9.7011 3.570835 31.432397 -2.871232
2006-12-19 08:32:55 51°11.088 2°42.041 9.6994 3.570835 31.432397 -2.871232
2006-12-19 08:33:00 51°11.087 2°42.04 9.7025 3.568867 31.412339 -2.871232
2006-12-19 08:33:05 51°11.087 2°42.039 9.7003 3.578396 31.505529 -2.871232
2006-12-19 08:33:10 51°11.087 2°42.038 9.7027 3.583161 31.55214 -2.871232
2006-12-19 08:33:15 51°11.087 2°42.038 9.698 3.562238 31.34672 -2.871232
2006-12-19 08:33:20 51°11.087 2°42.037 9.6971 3.575185 31.473306 -2.871232
2006-12-19 08:33:24 51°11.085 2°42.037 9.6975 3.575185 31.473306 -2.871232
2006-12-19 08:33:29 51°11.085 2°42.036 9.6972 3.545458 31.182776 -2.871232
2006-12-19 08:33:34 51°11.084 2°42.035 9.6989 3.549601 31.222434 -2.871232
2006-12-19 08:33:40 51°11.084 2°42.034 9.6969 3.569384 31.415771 -2.871232
2006-12-19 08:33:44 51°11.084 2°42.034 9.696 3.566588 31.389245 -2.871232
2006-12-19 08:33:49 51°11.083 2°42.033 9.6976 3.582125 31.542006 -2.871232
2006-12-19 08:33:54 51°11.084 2°42.031 9.6989 3.582125 31.542006 -2.871232
2006-12-19 08:34:00 51°11.083 2°42.03 9.701 3.585129 31.572215 -2.871232
2006-12-19 08:34:04 51°11.084 2°42.029 9.7002 3.556437 31.291659 -2.871232
2006-12-19 08:34:09 51°11.084 2°42.028 9.7002 3.576428 31.487098 -2.871232
2006-12-19 08:34:14 51°11.084 2°42.027 9.7028 3.568452 31.409919 -2.871232
2006-12-19 08:34:20 51°11.083 2°42.026 9.7028 3.542248 31.153036 -2.871232
2006-12-19 08:34:24 51°11.083 2°42.026 9.7018 3.542248 31.153036 -2.871232
2006-12-19 08:34:29 51°11.082 2°42.025 9.7011 3.557162 31.297932 -2.871232
2006-12-19 08:34:34 51°11.082 2°42.024 9.7031 3.57156 31.437855 -2.871232
2006-12-19 08:34:39 51°11.081 2°42.024 9.7025 3.532719 31.058385 -2.871232
2006-12-19 08:34:45 51°11.082 2°42.021 9.7028 3.559337 31.317562 -2.871232
2006-12-19 08:34:49 51°11.081 2°42.021 9.7032 3.577464 31.494776 -2.871232
2006-12-19 08:34:55 51°11.08 2°42.02 9.7054 3.577464 31.494776 -2.871232
2006-12-19 08:34:59 51°11.08 2°42.02 9.704 3.550223 31.228505 -2.871232
2006-12-19 08:35:04 51°11.081 2°42.018 9.7058 3.54173 31.144744 -2.871232
2006-12-19 08:35:09 51°11.081 2°42.016 9.7021 3.574563 31.465594 -2.871232
2006-12-19 08:35:14 51°11.08 2°42.015 9.7027 3.580157 31.51948 -2.871232
2006-12-19 08:35:20 51°11.08 2°42.014 9.7029 3.571042 31.430342 -2.871232
2006-12-19 08:35:24 51°11.08 2°42.013 9.7027 3.571042 31.430342 -2.871232
2006-12-19 08:35:29 51°11.08 2°42.012 9.7038 3.574045 31.458896 -2.871232
2006-12-19 08:35:34 51°11.079 2°42.011 9.703 3.584714 31.563243 -2.871232
2006-12-19 08:35:40 51°11.079 2°42.009 9.7025 3.53189 31.047073 -2.871232
2006-12-19 08:35:44 51°11.079 2°42.008 9.7029 3.561202 31.333342 -2.871232
2006-12-19 08:35:49 51°11.078 2°42.008 9.7031 3.565759 31.377885 -2.871232
2006-12-19 08:35:54 51°11.077 2°42.007 9.7039 3.565759 31.377885 -2.871232
2006-12-19 08:36:00 51°11.076 2°42.007 9.7021 3.576531 31.483206 -2.871232
2006-12-19 08:36:04 51°11.076 2°42.006 9.7038 3.56462 31.366749 -2.871232
2006-12-19 08:36:09 51°11.076 2°42.005 9.7062 3.585647 31.572363 -2.871232
2006-12-19 08:36:14 51°11.075 2°42.003 9.7045 3.5872 31.587564 -2.871232
2006-12-19 08:36:20 51°11.075 2°42.002 9.7026 3.543905 31.163557 -2.871232
2006-12-19 08:36:24 51°11.075 2°42.002 9.7055 3.543905 31.163557 -2.871232
2006-12-19 08:36:29 51°11.074 2°42 9.7034 3.581814 31.534872 -2.871232
2006-12-19 08:36:34 51°11.074 2°41.999 9.7046 3.526608 30.995524 -2.871232
2006-12-19 08:36:39 51°11.074 2°41.998 9.7043 3.505998 30.793705 -2.871232
2006-12-19 08:36:44 51°11.074 2°41.996 9.7068 3.512834 30.859551 -2.871232
2006-12-19 08:36:49 51°11.074 2°41.995 9.7041 3.581918 31.535067 -2.871232
2006-12-19 08:36:54 51°11.073 2°41.994 9.704 3.581918 31.535067 -2.871232
2006-12-19 08:36:59 51°11.073 2°41.994 9.7027 3.572699 31.444914 -2.871232
2006-12-19 08:37:04 51°11.072 2°41.992 9.7055 3.581089 31.526961 -2.871232
2006-12-19 08:37:10 51°11.072 2°41.991 9.7032 3.593726 31.649777 -2.871232
2006-12-19 08:37:14 51°11.072 2°41.99 9.7046 3.576635 31.482584 -2.871232
2006-12-19 08:37:20 51°11.071 2°41.989 9.7041 3.54929 31.215347 -2.871232
2006-12-19 08:37:24 51°11.071 2°41.987 9.7022 3.54929 31.215347 -2.871232
2006-12-19 08:37:30 51°11.071 2°41.986 9.7046 3.578085 31.496765 -2.871232
2006-12-19 08:37:35 51°11.07 2°41.985 9.7055 3.570213 31.420609 -2.871232
2006-12-19 08:37:39 51°11.07 2°41.984 9.7039 3.580468 31.520883 -2.871232
2006-12-19 08:37:44 51°11.07 2°41.983 9.7013 3.572699 31.444914 -2.871232
2006-12-19 08:37:49 51°11.069 2°41.982 9.7049 3.568349 31.402383 -2.871232
2006-12-19 08:37:55 51°11.069 2°41.98 9.7036 3.568349 31.402383 -2.871232
2006-12-19 08:37:59 51°11.069 2°41.98 9.7041 3.510555 30.838934 -2.871232
2006-12-19 08:38:04 51°11.068 2°41.978 9.7024 3.566691 31.386183 -2.871232
2006-12-19 08:38:09 51°11.068 2°41.977 9.7039 3.558198 31.303177 -2.871232
2006-12-19 08:38:14 51°11.068 2°41.976 9.7027 3.561823 31.339416 -2.871232
2006-12-19 08:38:20 51°11.068 2°41.974 9.7025 3.593208 31.64553 -2.871232
2006-12-19 08:38:24 51°11.067 2°41.974 9.7046 3.593208 31.64553 -2.871232
2006-12-19 08:38:29 51°11.067 2°41.973 9.7017 3.551051 31.233356 -2.871232
2006-12-19 08:38:34 51°11.066 2°41.972 9.7022 3.526608 30.99472 -2.871232
2006-12-19 08:38:40 51°11.065 2°41.971 9.7026 3.542558 31.150409 -2.871232
2006-12-19 08:38:44 51°11.065 2°41.97 9.7025 3.570109 31.419597 -2.871232
2006-12-19 08:38:49 51°11.064 2°41.969 9.7001 3.55913 31.313912 -2.871232
2006-12-19 08:38:54 51°11.064 2°41.968 9.7016 3.55913 31.313912 -2.871232
2006-12-19 08:39:00 51°11.064 2°41.966 9.7033 3.572492 31.444521 -2.871232
2006-12-19 08:39:04 51°11.064 2°41.965 9.7039 3.554262 31.266345 -2.871232
2006-12-19 08:39:09 51°11.064 2°41.964 9.7033 3.544526 31.170435 -2.871232
2006-12-19 08:39:14 51°11.063 2°41.963 9.7008 3.576221 31.480984 -2.871232
2006-12-19 08:39:19 51°11.062 2°41.962 9.7036 3.573735 31.456675 -2.871232
2006-12-19 08:39:25 51°11.062 2°41.961 9.7039 3.573735 31.456675 -2.871232
2006-12-19 08:39:29 51°11.061 2°41.96 9.7036 3.590826 31.623859 -2.871232
2006-12-19 08:39:35 51°11.061 2°41.959 9.7043 3.578085 31.4984 -2.871232
2006-12-19 08:39:39 51°11.061 2°41.958 9.7043 3.579639 31.513596 -2.871232
2006-12-19 08:39:44 51°11.06 2°41.957 9.7063 3.549394 31.217979 -2.871232
2006-12-19 08:39:49 51°11.058 2°41.957 9.7058 3.49906 30.726867 -2.871232
2006-12-19 08:39:54 51°11.058 2°41.956 9.7071 3.49906 30.726867 -2.871232
2006-12-19 08:40:00 51°11.057 2°41.955 9.7067 3.545355 31.177717 -2.871232
2006-12-19 08:40:04 51°11.057 2°41.954 9.7066 3.559648 31.316533 -2.871232
2006-12-19 08:40:09 51°11.056 2°41.953 9.7083 3.572077 31.438021 -2.871232
2006-12-19 08:40:14 51°11.056 2°41.952 9.7071 3.580467 31.519246 -2.871232
2006-12-19 08:40:20 51°11.056 2°41.95 9.7083 3.557473 31.294468 -2.871232
2006-12-19 08:40:24 51°11.055 2°41.949 9.7106 3.557473 31.294468 -2.871232
2006-12-19 08:40:29 51°11.055 2°41.949 9.7078 3.574045 31.45563 -2.871232
2006-12-19 08:40:35 51°11.054 2°41.947 9.7101 3.53593 31.08408 -2.871232
2006-12-19 08:40:39 51°11.054 2°41.946 9.7105 3.58285 31.541729 -2.871232
2006-12-19 08:40:45 51°11.053 2°41.945 9.7097 3.5843 31.555913 -2.871232
2006-12-19 08:40:49 51°11.053 2°41.945 9.7116 3.573424 31.447921 -2.871232
2006-12-19 08:40:53 51°11.052 2°41.944 9.7083 3.573424 31.447921 -2.871232
2006-12-19 08:41:00 51°11.052 2°41.943 9.7055 3.578914 31.50078 -2.871232
2006-12-19 08:41:04 51°11.051 2°41.942 9.707 3.575806 31.469579 -2.871232
2006-12-19 08:41:09 51°11.051 2°41.941 9.7057 3.576221 31.472813 -2.871232
2006-12-19 08:41:14 51°11.051 2°41.939 9.7065 3.557991 31.294654 -2.871232
2006-12-19 08:41:19 51°11.05 2°41.939 9.7054 3.548876 31.20482 -2.871232
2006-12-19 08:41:24 51°11.049 2°41.938 9.7055 3.548876 31.20482 -2.871232
2006-12-19 08:41:29 51°11.049 2°41.937 9.7042 3.583264 31.541687 -2.871232
2006-12-19 08:41:34 51°11.048 2°41.937 9.7061 3.57042 31.417741 -2.871232
2006-12-19 08:41:39 51°11.047 2°41.936 9.7084 3.577878 31.490651 -2.871232
2006-12-19 08:41:44 51°11.046 2°41.935 9.7067 3.559648 31.313282 -2.871232
2006-12-19 08:41:50 51°11.046 2°41.933 9.7049 3.579224 31.504636 -2.871232
2006-12-19 08:41:54 51°11.046 2°41.933 9.7036 3.579224 31.504636 -2.871232
2006-12-19 08:42:00 51°11.046 2°41.932 9.7051 3.483733 30.572775 -2.871232
2006-12-19 08:42:04 51°11.045 2°41.931 9.7016 3.564102 31.357616 -2.871232
2006-12-19 08:42:09 51°11.044 2°41.93 9.7006 3.591551 31.625206 -2.871232
2006-12-19 08:42:15 51°11.043 2°41.93 9.7024 3.576324 31.477094 -2.871232
2006-12-19 08:42:19 51°11.043 2°41.929 9.6999 3.571663 31.432338 -2.871232
2006-12-19 08:42:24 51°11.043 2°41.928 9.7018 3.571663 31.432338 -2.871232
2006-12-19 08:42:29 51°11.042 2°41.927 9.7011 3.574667 31.461706 -2.871232
2006-12-19 08:42:35 51°11.042 2°41.925 9.7014 3.579535 31.510129 -2.871232
2006-12-19 08:42:40 51°11.041 2°41.924 9.6998 3.570731 31.424857 -2.871232
2006-12-19 08:42:44 51°11.041 2°41.923 9.7012 3.571145 31.429723 -2.871232
2006-12-19 08:42:49 51°11.04 2°41.921 9.7006 3.569074 31.410286 -2.871232
2006-12-19 08:42:54 51°11.038 2°41.918 9.6979 3.569074 31.410286 -2.871232
2006-12-19 08:43:00 51°11.037 2°41.913 9.699 3.589065 31.605807 -2.871232
2006-12-19 08:43:04 51°11.035 2°41.908 9.7004 3.577567 31.493335 -2.871232
2006-12-19 08:43:09 51°11.032 2°41.902 9.6984 3.546908 31.1937 -2.871232
2006-12-19 08:43:14 51°11.028 2°41.894 9.7007 3.545769 31.182573 -2.871232
2006-12-19 08:43:20 51°11.025 2°41.882 9.7023 3.568245 31.403001 -2.871232
2006-12-19 08:43:24 51°11.022 2°41.873 9.7005 3.568245 31.403001 -2.871232
2006-12-19 08:43:30 51°11.019 2°41.858 9.6994 3.581711 31.534678 -2.871232
2006-12-19 08:43:34 51°11.016 2°41.846 9.7018 3.553123 31.255214 -2.871232
2006-12-19 08:43:40 51°11.012 2°41.828 9.701 3.578603 31.504284 -2.871232
2006-12-19 08:43:45 51°11.007 2°41.812 9.7015 3.582539 31.542784 -2.871232
2006-12-19 08:43:49 51°11.003 2°41.799 9.703 3.560477 31.325444 -2.871232
2006-12-19 08:43:55 51°10.997 2°41.776 9.7052 3.560477 31.325444 -2.871232
2006-12-19 08:43:59 51°10.993 2°41.76 9.7041 3.574253 31.460922 -2.871232
2006-12-19 08:44:04 51°10.987 2°41.739 9.7048 3.54318 31.157286 -2.871232
2006-12-19 08:44:09 51°10.982 2°41.717 9.7046 3.587097 31.587371 -2.871232
2006-12-19 08:44:14 51°10.976 2°41.694 9.7059 3.576014 31.478141 -2.871232
2006-12-19 08:44:20 51°10.968 2°41.667 9.7093 3.549498 31.21818 -2.871232
2006-12-19 08:44:24 51°10.963 2°41.647 9.709 3.549498 31.21818 -2.871232
2006-12-19 08:44:30 51°10.956 2°41.617 9.7135 3.595591 31.668024 -2.871232
2006-12-19 08:44:34 51°10.951 2°41.597 9.7173 3.568556 31.402777 -2.871232
2006-12-19 08:44:40 51°10.942 2°41.567 9.7228 3.53914 31.115422 -2.871232
2006-12-19 08:44:44 51°10.937 2°41.546 9.7262 3.56058 31.323203 -2.871232
2006-12-19 08:44:49 51°10.93 2°41.52 9.7307 3.582746 31.539078 -2.871232
2006-12-19 08:44:55 51°10.921 2°41.488 9.7304 3.582746 31.539078 -2.871232
2006-12-19 08:45:00 51°10.915 2°41.46 9.731 3.515941 30.885042 -2.871232
2006-12-19 08:45:04 51°10.91 2°41.437 9.7349 3.531165 31.031136 -2.871232
2006-12-19 08:45:09 51°10.902 2°41.41 9.7377 3.589686 31.599582 -2.871232
2006-12-19 08:45:15 51°10.895 2°41.376 9.7358 3.57477 31.44884 -2.871232
2006-12-19 08:45:20 51°10.887 2°41.349 9.7413 3.548358 31.187622 -2.871232
2006-12-19 08:45:24 51°10.881 2°41.327 9.7447 3.548358 31.187622 -2.871232
2006-12-19 08:45:29 51°10.875 2°41.298 9.7496 3.57477 31.442313 -2.871232
2006-12-19 08:45:33 51°10.869 2°41.276 9.7498 3.57767 31.468205 -2.871232
2006-12-19 08:45:40 51°10.86 2°41.236 9.7531 3.561201 31.304898 -2.871232
2006-12-19 08:45:44 51°10.855 2°41.213 9.7558 3.578292 31.470196 -2.871232
2006-12-19 08:45:49 51°10.848 2°41.185 9.7578 3.561823 31.306906 -2.871232
2006-12-19 08:45:54 51°10.841 2°41.157 9.7467 3.561823 31.306906 -2.871232
2006-12-19 08:45:59 51°10.834 2°41.129 9.7358 3.576738 31.449306 -2.871232
2006-12-19 08:46:04 51°10.827 2°41.101 9.728 3.57477 31.426823 -2.871232
2006-12-19 08:46:10 51°10.819 2°41.067 9.7061 3.583989 31.513605 -2.871232
2006-12-19 08:46:14 51°10.813 2°41.044 9.6864 3.563376 31.309896 -2.871232
2006-12-19 08:46:20 51°10.805 2°41.01 9.6785 3.555919 31.235506 -2.871232
2006-12-19 08:46:24 51°10.8 2°40.986 9.6612 3.555919 31.235506 -2.871232
2006-12-19 08:46:30 51°10.793 2°40.952 9.6623 3.579224 31.467062 -2.871232
2006-12-19 08:46:35 51°10.785 2°40.924 9.6412 3.568452 31.368379 -2.871232
2006-12-19 08:46:40 51°10.779 2°40.895 9.6379 3.564723 31.342537 -2.871232
2006-12-19 08:46:44 51°10.773 2°40.873 9.6349 3.56897 31.397862 -2.871232
2006-12-19 08:46:49 51°10.766 2°40.844 9.6312 3.537483 31.108127 -2.871232
2006-12-19 08:46:55 51°10.758 2°40.81 9.631 3.537483 31.108127 -2.871232
2006-12-19 08:46:59 51°10.752 2°40.788 9.6294 3.558716 31.327756 -2.871232
2006-12-19 08:47:04 51°10.745 2°40.759 9.6265 3.545666 31.209919 -2.871232
2006-12-19 08:47:09 51°10.738 2°40.73 9.6266 3.56027 31.364132 -2.871232
2006-12-19 08:47:14 51°10.732 2°40.701 9.6251 3.531995 31.095709 -2.871232
2006-12-19 08:47:20 51°10.724 2°40.667 9.6293 3.560167 31.376985 -2.871232
2006-12-19 08:47:24 51°10.719 2°40.644 9.628 3.560167 31.376985 -2.871232
2006-12-19 08:47:29 51°10.712 2°40.615 9.6305 3.560892 31.387348 -2.871232
2006-12-19 08:47:34 51°10.706 2°40.586 9.6277 3.536241 31.148562 -2.871232
2006-12-19 08:47:40 51°10.697 2°40.552 9.6364 3.517392 30.965883 -2.871232
2006-12-19 08:47:44 51°10.692 2°40.53 9.6309 3.547323 31.260236 -2.871232
2006-12-19 08:47:49 51°10.685 2°40.501 9.6349 3.540798 31.196386 -2.871232
2006-12-19 08:47:54 51°10.678 2°40.473 9.6372 3.540798 31.196386 -2.871232
2006-12-19 08:48:00 51°10.669 2°40.439 9.6411 3.541938 31.207533 -2.871232
2006-12-19 08:48:04 51°10.664 2°40.417 9.6454 3.542455 31.2126 -2.871232
2006-12-19 08:48:09 51°10.656 2°40.389 9.6561 3.566899 31.450264 -2.871232
2006-12-19 08:48:14 51°10.65 2°40.359 9.6851 3.551674 31.30037 -2.871232
2006-12-19 08:48:19 51°10.644 2°40.331 9.7045 3.51532 30.944835 -2.871232
2006-12-19 08:48:25 51°10.636 2°40.297 9.7359 3.51532 30.944835 -2.871232
2006-12-19 08:48:29 51°10.63 2°40.275 9.7656 3.560063 31.380052 -2.871232
2006-12-19 08:48:35 51°10.622 2°40.241 9.7855 3.542973 31.209548 -2.871232
2006-12-19 08:48:39 51°10.617 2°40.218 9.8064 3.562652 31.397239 -2.871232
2006-12-19 08:48:44 51°10.61 2°40.189 9.8224 3.576118 31.515157 -2.871232
2006-12-19 08:48:49 51°10.604 2°40.161 9.8397 3.521844 30.96592 -2.871232
2006-12-19 08:48:54 51°10.597 2°40.133 9.8495 3.521844 30.96592 -2.871232
2006-12-19 08:49:00 51°10.589 2°40.099 9.8592 3.510245 30.827903 -2.871232
2006-12-19 08:49:04 51°10.584 2°40.076 9.8728 3.573838 31.421793 -2.871232
2006-12-19 08:49:10 51°10.576 2°40.042 9.8805 3.554676 31.212863 -2.871232
2006-12-19 08:49:14 51°10.57 2°40.019 9.886 3.548461 31.131296 -2.871232
2006-12-19 08:49:20 51°10.561 2°39.986 9.8909 3.557782 31.201937 -2.871232
2006-12-19 08:49:24 51°10.557 2°39.963 9.9007 3.557782 31.201937 -2.871232
2006-12-19 08:49:29 51°10.55 2°39.935 9.9013 3.574873 31.35305 -2.871232
2006-12-19 08:49:34 51°10.544 2°39.907 9.9117 3.59041 31.492258 -2.871232
2006-12-19 08:49:40 51°10.536 2°39.873 9.9129 3.593517 31.508695 -2.871232
2006-12-19 08:49:44 51°10.531 2°39.85 9.9232 3.605326 31.613149 -2.871232
2006-12-19 08:49:49 51°10.525 2°39.821 9.9217 3.600664 31.558765 -2.871232
2006-12-19 08:49:54 51°10.52 2°39.792 9.9246 3.600664 31.558765 -2.871232
2006-12-19 08:50:00 51°10.511 2°39.759 9.925 3.57425 31.295197 -2.871232
2006-12-19 08:50:04 51°10.506 2°39.736 9.93 3.607604 31.613305 -2.871232
2006-12-19 08:50:09 51°10.498 2°39.708 9.9279 3.582951 31.36688 -2.871232
2006-12-19 08:50:14 51°10.49 2°39.681 9.931 3.553431 31.073548 -2.871232
2006-12-19 08:50:19 51°10.483 2°39.654 9.9309 3.584401 31.36965 -2.871232
2006-12-19 08:50:24 51°10.475 2°39.626 9.9307 3.584401 31.36965 -2.871232
2006-12-19 08:50:29 51°10.467 2°39.598 9.9338 3.60719 31.587254 -2.871232
2006-12-19 08:50:34 51°10.459 2°39.571 9.9347 3.594759 31.464702 -2.871232
2006-12-19 08:50:39 51°10.452 2°39.543 9.9381 3.566792 31.190465 -2.871232
2006-12-19 08:50:44 51°10.444 2°39.516 9.9397 3.617134 31.677508 -2.871232
2006-12-19 08:50:50 51°10.435 2°39.483 9.9425 3.60201 31.528725 -2.871232
2006-12-19 08:50:54 51°10.428 2°39.461 9.9424 3.60201 31.528725 -2.871232
2006-12-19 08:51:00 51°10.419 2°39.427 9.9421 3.559335 31.113229 -2.871232
2006-12-19 08:51:04 51°10.413 2°39.405 9.9442 3.61268 31.630078 -2.871232
2006-12-19 08:51:10 51°10.404 2°39.371 9.9449 3.602321 31.526057 -2.871232
2006-12-19 08:51:15 51°10.396 2°39.344 9.9467 3.616202 31.659451 -2.871232
2006-12-19 08:51:19 51°10.391 2°39.322 9.9449 3.619206 31.686232 -2.871232
2006-12-19 08:51:24 51°10.383 2°39.294 9.9497 3.619206 31.686232 -2.871232
2006-12-19 08:51:29 51°10.376 2°39.266 9.9473 3.600871 31.50708 -2.871232
2006-12-19 08:51:35 51°10.366 2°39.233 9.9476 3.606361 31.558837 -2.871232
2006-12-19 08:51:40 51°10.358 2°39.205 9.9476 3.58958 31.394904 -2.871232
2006-12-19 08:51:44 51°10.353 2°39.182 9.9489 3.605843 31.550547 -2.871232
2006-12-19 08:51:49 51°10.344 2°39.155 9.9487 3.605739 31.54954 -2.871232
2006-12-19 08:51:54 51°10.336 2°39.127 9.9515 3.605739 31.54954 -2.871232
2006-12-19 08:52:00 51°10.327 2°39.094 9.9514 3.588855 31.384622 -2.871232
2006-12-19 08:52:04 51°10.322 2°39.071 9.9542 3.600974 31.50159 -2.871232
2006-12-19 08:52:09 51°10.314 2°39.044 9.955 3.614959 31.636752 -2.871232
2006-12-19 08:52:14 51°10.306 2°39.016 9.9576 3.594034 31.433327 -2.871232
2006-12-19 08:52:20 51°10.296 2°38.983 9.9535 3.615062 31.63776 -2.871232
2006-12-19 08:52:24 51°10.29 2°38.961 9.9567 3.615062 31.63776 -2.871232
2006-12-19 08:52:30 51°10.281 2°38.928 9.9564 3.53603 30.868801 -2.871232
2006-12-19 08:52:34 51°10.275 2°38.907 9.9568 3.622417 31.706855 -2.871232
2006-12-19 08:52:40 51°10.265 2°38.874 9.9573 3.548873 30.990921 -2.871232
2006-12-19 08:52:45 51°10.257 2°38.845 9.9578 3.596934 31.455028 -2.871232
2006-12-19 08:52:49 51°10.251 2°38.823 9.9584 3.607811 31.560736 -2.871232
2006-12-19 08:52:55 51°10.241 2°38.79 9.9591 3.607811 31.560736 -2.871232
2006-12-19 08:52:59 51°10.235 2°38.768 9.9617 3.600456 31.48844 -2.871232
2006-12-19 08:53:05 51°10.226 2°38.735 9.9667 3.590305 31.389004 -2.871232
2006-12-19 08:53:09 51°10.22 2°38.713 9.9649 3.602735 31.509775 -2.871232
2006-12-19 08:53:14 51°10.212 2°38.685 9.9641 3.519873 30.705138 -2.871232
2006-12-19 08:53:19 51°10.205 2°38.657 9.965 3.599213 31.473928 -2.871232
2006-12-19 08:53:24 51°10.197 2°38.63 9.9686 3.599213 31.473928 -2.871232
2006-12-19 08:53:30 51°10.188 2°38.596 9.9688 3.609157 31.56976 -2.871232
2006-12-19 08:53:34 51°10.181 2°38.575 9.9662 3.598281 31.461627 -2.871232
2006-12-19 08:53:40 51°10.172 2°38.542 9.9686 3.57746 31.257837 -2.871232
2006-12-19 08:53:44 51°10.166 2°38.52 9.9672 3.571867 31.203556 -2.871232
2006-12-19 08:53:49 51°10.158 2°38.492 9.9648 3.611747 31.589237 -2.871232
2006-12-19 08:53:55 51°10.149 2°38.459 9.9654 3.611747 31.589237 -2.871232
2006-12-19 08:54:00 51°10.141 2°38.431 9.9674 3.604392 31.516138 -2.871232
2006-12-19 08:54:04 51°10.135 2°38.409 9.9685 3.57021 31.184262 -2.871232
2006-12-19 08:54:09 51°10.128 2°38.382 9.9653 3.61154 31.58641 -2.871232